<?xml version="1.0" encoding="UTF-8" standalone="no" ?>
<gpx xmlns="http://www.topografix.com/GPX/1/1" xmlns:xsi="http://www.w3.org/2001/XMLSchema-instance" xsi:schemaLocation="http://www.topografix.com/GPX/1/1 http://www.topografix.com/GPX/1/1/gpx.xsd" version="1.1" creator="VisuGPX - https://www.visugpx.com">
  <metadata>
    <name>Pont d'espagne</name>
  </metadata>
  <trk>
    <name><![CDATA[ACTIVE LOG 012]]></name>
    <extensions>
      <line xmlns="http://www.topografix.com/GPX/gpx_style/0/2">
        <color>0000FF</color>
        <width>4</width>
      </line>
    </extensions>
    <trkseg>
      <trkpt lat="42.85025" lon="-0.13883">
        <ele>1522.3850097656</ele>
        <time>2020-12-18T09:21:09Z</time>
      </trkpt>
      <trkpt lat="42.85025" lon="-0.13882">
        <ele>1522.3850097656</ele>
        <time>2020-12-18T09:21:10Z</time>
      </trkpt>
      <trkpt lat="42.85025" lon="-0.13881">
        <ele>1521.904296875</ele>
        <time>2020-12-18T09:21:11Z</time>
      </trkpt>
      <trkpt lat="42.85026" lon="-0.13872">
        <ele>1522.8657226562</ele>
        <time>2020-12-18T09:21:24Z</time>
      </trkpt>
      <trkpt lat="42.85027" lon="-0.13863">
        <ele>1523.8269042969</ele>
        <time>2020-12-18T09:21:36Z</time>
      </trkpt>
      <trkpt lat="42.85027" lon="-0.13855">
        <ele>1525.2687988281</ele>
        <time>2020-12-18T09:21:52Z</time>
      </trkpt>
      <trkpt lat="42.85027" lon="-0.13845">
        <ele>1526.7109375</ele>
        <time>2020-12-18T09:22:03Z</time>
      </trkpt>
      <trkpt lat="42.85022" lon="-0.13828">
        <ele>1527.6721191406</ele>
        <time>2020-12-18T09:22:19Z</time>
      </trkpt>
      <trkpt lat="42.8502" lon="-0.13825">
        <ele>1527.6721191406</ele>
        <time>2020-12-18T09:22:25Z</time>
      </trkpt>
      <trkpt lat="42.85019" lon="-0.13831">
        <ele>1530.0754394531</ele>
        <time>2020-12-18T09:22:36Z</time>
      </trkpt>
      <trkpt lat="42.85014" lon="-0.13844">
        <ele>1530.0754394531</ele>
        <time>2020-12-18T09:22:52Z</time>
      </trkpt>
      <trkpt lat="42.85009" lon="-0.13856">
        <ele>1531.5173339844</ele>
        <time>2020-12-18T09:23:07Z</time>
      </trkpt>
      <trkpt lat="42.85004" lon="-0.13864">
        <ele>1531.998046875</ele>
        <time>2020-12-18T09:23:19Z</time>
      </trkpt>
      <trkpt lat="42.85003" lon="-0.13865">
        <ele>1531.998046875</ele>
        <time>2020-12-18T09:23:21Z</time>
      </trkpt>
      <trkpt lat="42.84997" lon="-0.13876">
        <ele>1534.4016113281</ele>
        <time>2020-12-18T09:23:34Z</time>
      </trkpt>
      <trkpt lat="42.84996" lon="-0.13867">
        <ele>1537.2854003906</ele>
        <time>2020-12-18T09:23:51Z</time>
      </trkpt>
      <trkpt lat="42.84999" lon="-0.13859">
        <ele>1539.6887207031</ele>
        <time>2020-12-18T09:24:05Z</time>
      </trkpt>
      <trkpt lat="42.85" lon="-0.1386">
        <ele>1540.1694335938</ele>
        <time>2020-12-18T09:24:49Z</time>
      </trkpt>
      <trkpt lat="42.84998" lon="-0.1385">
        <ele>1541.611328125</ele>
        <time>2020-12-18T09:25:10Z</time>
      </trkpt>
      <trkpt lat="42.84993" lon="-0.13839">
        <ele>1544.0146484375</ele>
        <time>2020-12-18T09:25:24Z</time>
      </trkpt>
      <trkpt lat="42.84988" lon="-0.13827">
        <ele>1545.4565429688</ele>
        <time>2020-12-18T09:25:37Z</time>
      </trkpt>
      <trkpt lat="42.84984" lon="-0.13826">
        <ele>1545.9372558594</ele>
        <time>2020-12-18T09:25:51Z</time>
      </trkpt>
      <trkpt lat="42.84976" lon="-0.13832">
        <ele>1547.3791503906</ele>
        <time>2020-12-18T09:26:22Z</time>
      </trkpt>
      <trkpt lat="42.84971" lon="-0.13836">
        <ele>1548.8212890625</ele>
        <time>2020-12-18T09:26:34Z</time>
      </trkpt>
      <trkpt lat="42.8497" lon="-0.13837">
        <ele>1550.2634277344</ele>
        <time>2020-12-18T09:26:36Z</time>
      </trkpt>
      <trkpt lat="42.84968" lon="-0.13843">
        <ele>1552.1857910156</ele>
        <time>2020-12-18T09:26:44Z</time>
      </trkpt>
      <trkpt lat="42.84964" lon="-0.13846">
        <ele>1554.1086425781</ele>
        <time>2020-12-18T09:26:58Z</time>
      </trkpt>
      <trkpt lat="42.84956" lon="-0.13846">
        <ele>1556.51171875</ele>
        <time>2020-12-18T09:27:12Z</time>
      </trkpt>
      <trkpt lat="42.84946" lon="-0.13848">
        <ele>1559.8762207031</ele>
        <time>2020-12-18T09:27:27Z</time>
      </trkpt>
      <trkpt lat="42.84937" lon="-0.13847">
        <ele>1561.318359375</ele>
        <time>2020-12-18T09:27:41Z</time>
      </trkpt>
      <trkpt lat="42.84931" lon="-0.13857">
        <ele>1564.2023925781</ele>
        <time>2020-12-18T09:27:56Z</time>
      </trkpt>
      <trkpt lat="42.84925" lon="-0.1386">
        <ele>1565.64453125</ele>
        <time>2020-12-18T09:28:09Z</time>
      </trkpt>
      <trkpt lat="42.84921" lon="-0.13865">
        <ele>1566.6057128906</ele>
        <time>2020-12-18T09:28:21Z</time>
      </trkpt>
      <trkpt lat="42.84913" lon="-0.13868">
        <ele>1568.0476074219</ele>
        <time>2020-12-18T09:28:35Z</time>
      </trkpt>
      <trkpt lat="42.84906" lon="-0.1387">
        <ele>1570.4509277344</ele>
        <time>2020-12-18T09:28:48Z</time>
      </trkpt>
      <trkpt lat="42.84902" lon="-0.1387">
        <ele>1572.3735351562</ele>
        <time>2020-12-18T09:28:59Z</time>
      </trkpt>
      <trkpt lat="42.84903" lon="-0.1388">
        <ele>1574.2961425781</ele>
        <time>2020-12-18T09:29:11Z</time>
      </trkpt>
      <trkpt lat="42.84901" lon="-0.1388">
        <ele>1576.6994628906</ele>
        <time>2020-12-18T09:29:25Z</time>
      </trkpt>
      <trkpt lat="42.84895" lon="-0.13872">
        <ele>1577.6606445312</ele>
        <time>2020-12-18T09:29:38Z</time>
      </trkpt>
      <trkpt lat="42.84887" lon="-0.13867">
        <ele>1579.1025390625</ele>
        <time>2020-12-18T09:29:51Z</time>
      </trkpt>
      <trkpt lat="42.84882" lon="-0.13869">
        <ele>1580.0642089844</ele>
        <time>2020-12-18T09:30:03Z</time>
      </trkpt>
      <trkpt lat="42.84878" lon="-0.13865">
        <ele>1582.9479980469</ele>
        <time>2020-12-18T09:30:16Z</time>
      </trkpt>
      <trkpt lat="42.84871" lon="-0.13861">
        <ele>1586.3127441406</ele>
        <time>2020-12-18T09:30:31Z</time>
      </trkpt>
      <trkpt lat="42.84862" lon="-0.13855">
        <ele>1587.2739257812</ele>
        <time>2020-12-18T09:30:44Z</time>
      </trkpt>
      <trkpt lat="42.84854" lon="-0.13848">
        <ele>1589.1965332031</ele>
        <time>2020-12-18T09:30:58Z</time>
      </trkpt>
      <trkpt lat="42.84846" lon="-0.13848">
        <ele>1590.1579589844</ele>
        <time>2020-12-18T09:31:11Z</time>
      </trkpt>
      <trkpt lat="42.84841" lon="-0.1385">
        <ele>1592.0805664062</ele>
        <time>2020-12-18T09:31:22Z</time>
      </trkpt>
      <trkpt lat="42.84837" lon="-0.13852">
        <ele>1593.0417480469</ele>
        <time>2020-12-18T09:31:29Z</time>
      </trkpt>
      <trkpt lat="42.84832" lon="-0.13848">
        <ele>1595.4450683594</ele>
        <time>2020-12-18T09:31:42Z</time>
      </trkpt>
      <trkpt lat="42.84826" lon="-0.13843">
        <ele>1596.8872070312</ele>
        <time>2020-12-18T09:31:59Z</time>
      </trkpt>
      <trkpt lat="42.84817" lon="-0.13837">
        <ele>1599.7712402344</ele>
        <time>2020-12-18T09:32:12Z</time>
      </trkpt>
      <trkpt lat="42.84807" lon="-0.13835">
        <ele>1602.1743164062</ele>
        <time>2020-12-18T09:32:28Z</time>
      </trkpt>
      <trkpt lat="42.84798" lon="-0.13838">
        <ele>1604.0971679688</ele>
        <time>2020-12-18T09:32:45Z</time>
      </trkpt>
      <trkpt lat="42.8479" lon="-0.13841">
        <ele>1606.9809570312</ele>
        <time>2020-12-18T09:33:01Z</time>
      </trkpt>
      <trkpt lat="42.84776" lon="-0.13841">
        <ele>1607.9423828125</ele>
        <time>2020-12-18T09:33:18Z</time>
      </trkpt>
      <trkpt lat="42.84766" lon="-0.13835">
        <ele>1608.4228515625</ele>
        <time>2020-12-18T09:33:33Z</time>
      </trkpt>
      <trkpt lat="42.84753" lon="-0.13833">
        <ele>1610.826171875</ele>
        <time>2020-12-18T09:33:51Z</time>
      </trkpt>
      <trkpt lat="42.84753" lon="-0.13837">
        <ele>1611.3068847656</ele>
        <time>2020-12-18T09:34:09Z</time>
      </trkpt>
      <trkpt lat="42.84754" lon="-0.13838">
        <ele>1613.2297363281</ele>
        <time>2020-12-18T09:34:31Z</time>
      </trkpt>
      <trkpt lat="42.8475" lon="-0.13843">
        <ele>1613.2297363281</ele>
        <time>2020-12-18T09:36:15Z</time>
      </trkpt>
      <trkpt lat="42.84753" lon="-0.13836">
        <ele>1613.7102050781</ele>
        <time>2020-12-18T09:37:11Z</time>
      </trkpt>
      <trkpt lat="42.84746" lon="-0.13837">
        <ele>1614.6716308594</ele>
        <time>2020-12-18T09:37:25Z</time>
      </trkpt>
      <trkpt lat="42.84738" lon="-0.13841">
        <ele>1615.15234375</ele>
        <time>2020-12-18T09:37:40Z</time>
      </trkpt>
      <trkpt lat="42.84726" lon="-0.13846">
        <ele>1615.6330566406</ele>
        <time>2020-12-18T09:37:58Z</time>
      </trkpt>
      <trkpt lat="42.84712" lon="-0.13851">
        <ele>1616.5942382812</ele>
        <time>2020-12-18T09:38:13Z</time>
      </trkpt>
      <trkpt lat="42.847" lon="-0.13854">
        <ele>1617.5554199219</ele>
        <time>2020-12-18T09:38:28Z</time>
      </trkpt>
      <trkpt lat="42.84691" lon="-0.13849">
        <ele>1619.4782714844</ele>
        <time>2020-12-18T09:38:43Z</time>
      </trkpt>
      <trkpt lat="42.84687" lon="-0.13844">
        <ele>1622.3620605469</ele>
        <time>2020-12-18T09:38:55Z</time>
      </trkpt>
      <trkpt lat="42.84682" lon="-0.13845">
        <ele>1623.3234863281</ele>
        <time>2020-12-18T09:39:01Z</time>
      </trkpt>
      <trkpt lat="42.84674" lon="-0.1385">
        <ele>1624.7653808594</ele>
        <time>2020-12-18T09:39:15Z</time>
      </trkpt>
      <trkpt lat="42.8467" lon="-0.13854">
        <ele>1625.2458496094</ele>
        <time>2020-12-18T09:39:28Z</time>
      </trkpt>
      <trkpt lat="42.8467" lon="-0.13852">
        <ele>1626.6879882812</ele>
        <time>2020-12-18T09:39:31Z</time>
      </trkpt>
      <trkpt lat="42.84671" lon="-0.13844">
        <ele>1629.0913085938</ele>
        <time>2020-12-18T09:39:42Z</time>
      </trkpt>
      <trkpt lat="42.84663" lon="-0.1385">
        <ele>1631.0141601562</ele>
        <time>2020-12-18T09:39:55Z</time>
      </trkpt>
      <trkpt lat="42.8466" lon="-0.13856">
        <ele>1634.3786621094</ele>
        <time>2020-12-18T09:40:05Z</time>
      </trkpt>
      <trkpt lat="42.84654" lon="-0.13866">
        <ele>1636.7817382812</ele>
        <time>2020-12-18T09:40:20Z</time>
      </trkpt>
      <trkpt lat="42.8465" lon="-0.1387">
        <ele>1638.7045898438</ele>
        <time>2020-12-18T09:40:34Z</time>
      </trkpt>
      <trkpt lat="42.84644" lon="-0.1387">
        <ele>1640.146484375</ele>
        <time>2020-12-18T09:40:48Z</time>
      </trkpt>
      <trkpt lat="42.84633" lon="-0.13871">
        <ele>1642.5498046875</ele>
        <time>2020-12-18T09:41:03Z</time>
      </trkpt>
      <trkpt lat="42.84632" lon="-0.13871">
        <ele>1643.0302734375</ele>
        <time>2020-12-18T09:41:04Z</time>
      </trkpt>
      <trkpt lat="42.84628" lon="-0.1387">
        <ele>1643.0302734375</ele>
        <time>2020-12-18T09:41:08Z</time>
      </trkpt>
      <trkpt lat="42.84621" lon="-0.13863">
        <ele>1643.5109863281</ele>
        <time>2020-12-18T09:41:18Z</time>
      </trkpt>
      <trkpt lat="42.84612" lon="-0.13855">
        <ele>1643.0302734375</ele>
        <time>2020-12-18T09:41:30Z</time>
      </trkpt>
      <trkpt lat="42.84597" lon="-0.13863">
        <ele>1643.5109863281</ele>
        <time>2020-12-18T09:41:47Z</time>
      </trkpt>
      <trkpt lat="42.84592" lon="-0.13864">
        <ele>1645.9145507812</ele>
        <time>2020-12-18T09:42:00Z</time>
      </trkpt>
      <trkpt lat="42.84588" lon="-0.13858">
        <ele>1647.8371582031</ele>
        <time>2020-12-18T09:42:17Z</time>
      </trkpt>
      <trkpt lat="42.84584" lon="-0.13858">
        <ele>1651.2016601562</ele>
        <time>2020-12-18T09:42:27Z</time>
      </trkpt>
      <trkpt lat="42.8458" lon="-0.13854">
        <ele>1653.6049804688</ele>
        <time>2020-12-18T09:42:40Z</time>
      </trkpt>
      <trkpt lat="42.84577" lon="-0.13862">
        <ele>1654.5661621094</ele>
        <time>2020-12-18T09:42:50Z</time>
      </trkpt>
      <trkpt lat="42.84578" lon="-0.13866">
        <ele>1654.5661621094</ele>
        <time>2020-12-18T09:43:09Z</time>
      </trkpt>
      <trkpt lat="42.84575" lon="-0.13867">
        <ele>1655.046875</ele>
        <time>2020-12-18T09:44:24Z</time>
      </trkpt>
      <trkpt lat="42.84579" lon="-0.13849">
        <ele>1656.0080566406</ele>
        <time>2020-12-18T09:44:41Z</time>
      </trkpt>
      <trkpt lat="42.84577" lon="-0.13839">
        <ele>1656.0080566406</ele>
        <time>2020-12-18T09:44:50Z</time>
      </trkpt>
      <trkpt lat="42.84567" lon="-0.13834">
        <ele>1655.046875</ele>
        <time>2020-12-18T09:45:10Z</time>
      </trkpt>
      <trkpt lat="42.84557" lon="-0.13834">
        <ele>1655.5275878906</ele>
        <time>2020-12-18T09:45:29Z</time>
      </trkpt>
      <trkpt lat="42.84547" lon="-0.13838">
        <ele>1655.5275878906</ele>
        <time>2020-12-18T09:45:49Z</time>
      </trkpt>
      <trkpt lat="42.84539" lon="-0.13838">
        <ele>1655.5275878906</ele>
        <time>2020-12-18T09:46:02Z</time>
      </trkpt>
      <trkpt lat="42.84529" lon="-0.13834">
        <ele>1656.0080566406</ele>
        <time>2020-12-18T09:46:15Z</time>
      </trkpt>
      <trkpt lat="42.84514" lon="-0.13842">
        <ele>1656.0080566406</ele>
        <time>2020-12-18T09:46:26Z</time>
      </trkpt>
      <trkpt lat="42.84501" lon="-0.1385">
        <ele>1657.9309082031</ele>
        <time>2020-12-18T09:46:37Z</time>
      </trkpt>
      <trkpt lat="42.84483" lon="-0.13859">
        <ele>1659.3728027344</ele>
        <time>2020-12-18T09:46:51Z</time>
      </trkpt>
      <trkpt lat="42.84462" lon="-0.13868">
        <ele>1660.3342285156</ele>
        <time>2020-12-18T09:47:05Z</time>
      </trkpt>
      <trkpt lat="42.8445" lon="-0.1387">
        <ele>1662.2568359375</ele>
        <time>2020-12-18T09:47:19Z</time>
      </trkpt>
      <trkpt lat="42.84435" lon="-0.13868">
        <ele>1663.6987304688</ele>
        <time>2020-12-18T09:47:33Z</time>
      </trkpt>
      <trkpt lat="42.84426" lon="-0.13867">
        <ele>1665.6215820312</ele>
        <time>2020-12-18T09:47:48Z</time>
      </trkpt>
      <trkpt lat="42.84417" lon="-0.13865">
        <ele>1666.1020507812</ele>
        <time>2020-12-18T09:48:00Z</time>
      </trkpt>
      <trkpt lat="42.84405" lon="-0.13869">
        <ele>1667.5439453125</ele>
        <time>2020-12-18T09:48:16Z</time>
      </trkpt>
      <trkpt lat="42.84394" lon="-0.13874">
        <ele>1669.466796875</ele>
        <time>2020-12-18T09:48:33Z</time>
      </trkpt>
      <trkpt lat="42.84382" lon="-0.13876">
        <ele>1671.3891601562</ele>
        <time>2020-12-18T09:48:52Z</time>
      </trkpt>
      <trkpt lat="42.84372" lon="-0.13878">
        <ele>1672.8312988281</ele>
        <time>2020-12-18T09:49:07Z</time>
      </trkpt>
      <trkpt lat="42.84357" lon="-0.13881">
        <ele>1672.8312988281</ele>
        <time>2020-12-18T09:49:27Z</time>
      </trkpt>
      <trkpt lat="42.84344" lon="-0.1388">
        <ele>1673.7924804688</ele>
        <time>2020-12-18T09:49:47Z</time>
      </trkpt>
      <trkpt lat="42.84343" lon="-0.13859">
        <ele>1674.2731933594</ele>
        <time>2020-12-18T09:50:03Z</time>
      </trkpt>
      <trkpt lat="42.84338" lon="-0.13853">
        <ele>1673.7924804688</ele>
        <time>2020-12-18T09:50:15Z</time>
      </trkpt>
      <trkpt lat="42.8433" lon="-0.13847">
        <ele>1673.7924804688</ele>
        <time>2020-12-18T09:50:28Z</time>
      </trkpt>
      <trkpt lat="42.84332" lon="-0.13835">
        <ele>1673.3120117188</ele>
        <time>2020-12-18T09:50:40Z</time>
      </trkpt>
      <trkpt lat="42.84329" lon="-0.13826">
        <ele>1672.8312988281</ele>
        <time>2020-12-18T09:50:53Z</time>
      </trkpt>
      <trkpt lat="42.84314" lon="-0.13841">
        <ele>1672.3505859375</ele>
        <time>2020-12-18T09:51:04Z</time>
      </trkpt>
      <trkpt lat="42.84296" lon="-0.13858">
        <ele>1672.8312988281</ele>
        <time>2020-12-18T09:51:19Z</time>
      </trkpt>
      <trkpt lat="42.84277" lon="-0.13867">
        <ele>1674.2731933594</ele>
        <time>2020-12-18T09:51:35Z</time>
      </trkpt>
      <trkpt lat="42.84265" lon="-0.13878">
        <ele>1675.7150878906</ele>
        <time>2020-12-18T09:51:50Z</time>
      </trkpt>
      <trkpt lat="42.84254" lon="-0.13885">
        <ele>1675.7150878906</ele>
        <time>2020-12-18T09:52:06Z</time>
      </trkpt>
      <trkpt lat="42.8425" lon="-0.13891">
        <ele>1676.6767578125</ele>
        <time>2020-12-18T09:52:21Z</time>
      </trkpt>
      <trkpt lat="42.84249" lon="-0.13892">
        <ele>1676.6767578125</ele>
        <time>2020-12-18T09:52:22Z</time>
      </trkpt>
      <trkpt lat="42.84249" lon="-0.13915">
        <ele>1677.6379394531</ele>
        <time>2020-12-18T09:52:41Z</time>
      </trkpt>
      <trkpt lat="42.84238" lon="-0.13917">
        <ele>1677.1574707031</ele>
        <time>2020-12-18T09:52:55Z</time>
      </trkpt>
      <trkpt lat="42.84228" lon="-0.13917">
        <ele>1677.6379394531</ele>
        <time>2020-12-18T09:53:09Z</time>
      </trkpt>
      <trkpt lat="42.84218" lon="-0.13908">
        <ele>1679.0798339844</ele>
        <time>2020-12-18T09:53:21Z</time>
      </trkpt>
      <trkpt lat="42.84213" lon="-0.13909">
        <ele>1678.1186523438</ele>
        <time>2020-12-18T09:53:31Z</time>
      </trkpt>
      <trkpt lat="42.84211" lon="-0.13916">
        <ele>1678.1186523438</ele>
        <time>2020-12-18T09:53:37Z</time>
      </trkpt>
      <trkpt lat="42.84199" lon="-0.1392">
        <ele>1679.0798339844</ele>
        <time>2020-12-18T09:53:52Z</time>
      </trkpt>
      <trkpt lat="42.84189" lon="-0.13917">
        <ele>1681.4831542969</ele>
        <time>2020-12-18T09:54:05Z</time>
      </trkpt>
      <trkpt lat="42.84183" lon="-0.13909">
        <ele>1681.9638671875</ele>
        <time>2020-12-18T09:54:17Z</time>
      </trkpt>
      <trkpt lat="42.84173" lon="-0.13906">
        <ele>1681.4831542969</ele>
        <time>2020-12-18T09:54:31Z</time>
      </trkpt>
      <trkpt lat="42.84167" lon="-0.13898">
        <ele>1682.4445800781</ele>
        <time>2020-12-18T09:54:42Z</time>
      </trkpt>
      <trkpt lat="42.84157" lon="-0.13888">
        <ele>1681.9638671875</ele>
        <time>2020-12-18T09:54:55Z</time>
      </trkpt>
      <trkpt lat="42.84147" lon="-0.13886">
        <ele>1682.4445800781</ele>
        <time>2020-12-18T09:55:09Z</time>
      </trkpt>
      <trkpt lat="42.84132" lon="-0.13888">
        <ele>1684.8479003906</ele>
        <time>2020-12-18T09:55:26Z</time>
      </trkpt>
      <trkpt lat="42.84124" lon="-0.13882">
        <ele>1685.8090820312</ele>
        <time>2020-12-18T09:55:38Z</time>
      </trkpt>
      <trkpt lat="42.84119" lon="-0.13883">
        <ele>1687.7316894531</ele>
        <time>2020-12-18T09:55:47Z</time>
      </trkpt>
      <trkpt lat="42.84111" lon="-0.13872">
        <ele>1690.1350097656</ele>
        <time>2020-12-18T09:56:03Z</time>
      </trkpt>
      <trkpt lat="42.8411" lon="-0.1388">
        <ele>1692.0578613281</ele>
        <time>2020-12-18T09:56:29Z</time>
      </trkpt>
      <trkpt lat="42.84111" lon="-0.13879">
        <ele>1693.4997558594</ele>
        <time>2020-12-18T09:56:48Z</time>
      </trkpt>
      <trkpt lat="42.84113" lon="-0.1387">
        <ele>1694.9416503906</ele>
        <time>2020-12-18T09:57:21Z</time>
      </trkpt>
      <trkpt lat="42.84107" lon="-0.13868">
        <ele>1696.8642578125</ele>
        <time>2020-12-18T09:57:37Z</time>
      </trkpt>
      <trkpt lat="42.84105" lon="-0.1386">
        <ele>1699.267578125</ele>
        <time>2020-12-18T09:57:49Z</time>
      </trkpt>
      <trkpt lat="42.84104" lon="-0.13853">
        <ele>1701.1901855469</ele>
        <time>2020-12-18T09:58:03Z</time>
      </trkpt>
      <trkpt lat="42.84095" lon="-0.13845">
        <ele>1701.1901855469</ele>
        <time>2020-12-18T09:58:40Z</time>
      </trkpt>
      <trkpt lat="42.84085" lon="-0.13844">
        <ele>1701.6708984375</ele>
        <time>2020-12-18T09:58:59Z</time>
      </trkpt>
      <trkpt lat="42.84075" lon="-0.13846">
        <ele>1700.7094726562</ele>
        <time>2020-12-18T09:59:14Z</time>
      </trkpt>
      <trkpt lat="42.84066" lon="-0.13837">
        <ele>1699.7482910156</ele>
        <time>2020-12-18T09:59:29Z</time>
      </trkpt>
      <trkpt lat="42.84056" lon="-0.13838">
        <ele>1698.7868652344</ele>
        <time>2020-12-18T09:59:43Z</time>
      </trkpt>
      <trkpt lat="42.84044" lon="-0.13844">
        <ele>1697.8256835938</ele>
        <time>2020-12-18T10:00:00Z</time>
      </trkpt>
      <trkpt lat="42.84036" lon="-0.13841">
        <ele>1696.3837890625</ele>
        <time>2020-12-18T10:00:13Z</time>
      </trkpt>
      <trkpt lat="42.84021" lon="-0.13847">
        <ele>1693.98046875</ele>
        <time>2020-12-18T10:00:29Z</time>
      </trkpt>
      <trkpt lat="42.84014" lon="-0.13851">
        <ele>1691.5769042969</ele>
        <time>2020-12-18T10:00:46Z</time>
      </trkpt>
      <trkpt lat="42.84009" lon="-0.1385">
        <ele>1691.0961914062</ele>
        <time>2020-12-18T10:00:56Z</time>
      </trkpt>
      <trkpt lat="42.83999" lon="-0.13849">
        <ele>1690.1350097656</ele>
        <time>2020-12-18T10:01:10Z</time>
      </trkpt>
      <trkpt lat="42.83989" lon="-0.13851">
        <ele>1689.654296875</ele>
        <time>2020-12-18T10:01:25Z</time>
      </trkpt>
      <trkpt lat="42.83976" lon="-0.13859">
        <ele>1691.5769042969</ele>
        <time>2020-12-18T10:01:43Z</time>
      </trkpt>
      <trkpt lat="42.83965" lon="-0.13862">
        <ele>1693.0190429688</ele>
        <time>2020-12-18T10:02:01Z</time>
      </trkpt>
      <trkpt lat="42.83952" lon="-0.13867">
        <ele>1693.98046875</ele>
        <time>2020-12-18T10:02:20Z</time>
      </trkpt>
      <trkpt lat="42.83942" lon="-0.13867">
        <ele>1696.8642578125</ele>
        <time>2020-12-18T10:02:35Z</time>
      </trkpt>
      <trkpt lat="42.83928" lon="-0.13869">
        <ele>1697.3449707031</ele>
        <time>2020-12-18T10:02:54Z</time>
      </trkpt>
      <trkpt lat="42.83917" lon="-0.13878">
        <ele>1696.8642578125</ele>
        <time>2020-12-18T10:03:11Z</time>
      </trkpt>
      <trkpt lat="42.83902" lon="-0.13879">
        <ele>1695.9030761719</ele>
        <time>2020-12-18T10:03:29Z</time>
      </trkpt>
      <trkpt lat="42.83888" lon="-0.1388">
        <ele>1696.3837890625</ele>
        <time>2020-12-18T10:03:46Z</time>
      </trkpt>
      <trkpt lat="42.8388" lon="-0.13879">
        <ele>1696.8642578125</ele>
        <time>2020-12-18T10:03:59Z</time>
      </trkpt>
      <trkpt lat="42.83865" lon="-0.1387">
        <ele>1697.3449707031</ele>
        <time>2020-12-18T10:04:16Z</time>
      </trkpt>
      <trkpt lat="42.83859" lon="-0.13867">
        <ele>1699.267578125</ele>
        <time>2020-12-18T10:04:26Z</time>
      </trkpt>
      <trkpt lat="42.83848" lon="-0.13868">
        <ele>1701.1901855469</ele>
        <time>2020-12-18T10:04:41Z</time>
      </trkpt>
      <trkpt lat="42.83837" lon="-0.13865">
        <ele>1703.1127929688</ele>
        <time>2020-12-18T10:04:58Z</time>
      </trkpt>
      <trkpt lat="42.83827" lon="-0.1386">
        <ele>1703.5935058594</ele>
        <time>2020-12-18T10:05:09Z</time>
      </trkpt>
      <trkpt lat="42.83818" lon="-0.13862">
        <ele>1704.5546875</ele>
        <time>2020-12-18T10:05:24Z</time>
      </trkpt>
      <trkpt lat="42.83814" lon="-0.13857">
        <ele>1705.0354003906</ele>
        <time>2020-12-18T10:05:40Z</time>
      </trkpt>
      <trkpt lat="42.83803" lon="-0.13848">
        <ele>1705.5161132812</ele>
        <time>2020-12-18T10:05:57Z</time>
      </trkpt>
      <trkpt lat="42.83792" lon="-0.13842">
        <ele>1706.4772949219</ele>
        <time>2020-12-18T10:06:13Z</time>
      </trkpt>
      <trkpt lat="42.83785" lon="-0.13838">
        <ele>1706.9580078125</ele>
        <time>2020-12-18T10:06:22Z</time>
      </trkpt>
      <trkpt lat="42.83773" lon="-0.13831">
        <ele>1708.880859375</ele>
        <time>2020-12-18T10:06:39Z</time>
      </trkpt>
      <trkpt lat="42.83765" lon="-0.13827">
        <ele>1710.8034667969</ele>
        <time>2020-12-18T10:06:53Z</time>
      </trkpt>
      <trkpt lat="42.83754" lon="-0.13823">
        <ele>1712.2453613281</ele>
        <time>2020-12-18T10:07:08Z</time>
      </trkpt>
      <trkpt lat="42.83744" lon="-0.13824">
        <ele>1713.2067871094</ele>
        <time>2020-12-18T10:07:22Z</time>
      </trkpt>
      <trkpt lat="42.83731" lon="-0.13831">
        <ele>1714.16796875</ele>
        <time>2020-12-18T10:07:39Z</time>
      </trkpt>
      <trkpt lat="42.83719" lon="-0.13834">
        <ele>1716.0905761719</ele>
        <time>2020-12-18T10:07:57Z</time>
      </trkpt>
      <trkpt lat="42.83703" lon="-0.13837">
        <ele>1716.5712890625</ele>
        <time>2020-12-18T10:08:18Z</time>
      </trkpt>
      <trkpt lat="42.83693" lon="-0.13837">
        <ele>1717.5324707031</ele>
        <time>2020-12-18T10:08:33Z</time>
      </trkpt>
      <trkpt lat="42.8368" lon="-0.13833">
        <ele>1718.4938964844</ele>
        <time>2020-12-18T10:08:48Z</time>
      </trkpt>
      <trkpt lat="42.83661" lon="-0.13832">
        <ele>1718.0131835938</ele>
        <time>2020-12-18T10:09:11Z</time>
      </trkpt>
      <trkpt lat="42.83646" lon="-0.13838">
        <ele>1719.9357910156</ele>
        <time>2020-12-18T10:09:30Z</time>
      </trkpt>
      <trkpt lat="42.83631" lon="-0.13848">
        <ele>1721.3776855469</ele>
        <time>2020-12-18T10:09:51Z</time>
      </trkpt>
      <trkpt lat="42.8362" lon="-0.13858">
        <ele>1723.3005371094</ele>
        <time>2020-12-18T10:10:09Z</time>
      </trkpt>
      <trkpt lat="42.83606" lon="-0.13865">
        <ele>1724.2619628906</ele>
        <time>2020-12-18T10:10:28Z</time>
      </trkpt>
      <trkpt lat="42.83588" lon="-0.13867">
        <ele>1724.2619628906</ele>
        <time>2020-12-18T10:10:48Z</time>
      </trkpt>
      <trkpt lat="42.83572" lon="-0.13865">
        <ele>1725.2231445312</ele>
        <time>2020-12-18T10:11:06Z</time>
      </trkpt>
      <trkpt lat="42.83555" lon="-0.13868">
        <ele>1726.6652832031</ele>
        <time>2020-12-18T10:11:25Z</time>
      </trkpt>
      <trkpt lat="42.83537" lon="-0.13872">
        <ele>1726.6652832031</ele>
        <time>2020-12-18T10:11:45Z</time>
      </trkpt>
      <trkpt lat="42.83526" lon="-0.13876">
        <ele>1727.1459960938</ele>
        <time>2020-12-18T10:12:00Z</time>
      </trkpt>
      <trkpt lat="42.8352" lon="-0.13883">
        <ele>1727.6264648438</ele>
        <time>2020-12-18T10:12:13Z</time>
      </trkpt>
      <trkpt lat="42.83511" lon="-0.13885">
        <ele>1728.587890625</ele>
        <time>2020-12-18T10:12:27Z</time>
      </trkpt>
      <trkpt lat="42.835" lon="-0.13893">
        <ele>1728.1071777344</ele>
        <time>2020-12-18T10:12:40Z</time>
      </trkpt>
      <trkpt lat="42.83485" lon="-0.13906">
        <ele>1729.068359375</ele>
        <time>2020-12-18T10:13:00Z</time>
      </trkpt>
      <trkpt lat="42.83471" lon="-0.13915">
        <ele>1731.4716796875</ele>
        <time>2020-12-18T10:13:19Z</time>
      </trkpt>
      <trkpt lat="42.83455" lon="-0.13925">
        <ele>1731.4716796875</ele>
        <time>2020-12-18T10:13:40Z</time>
      </trkpt>
      <trkpt lat="42.83452" lon="-0.13926">
        <ele>1730.9912109375</ele>
        <time>2020-12-18T10:13:56Z</time>
      </trkpt>
      <trkpt lat="42.83452" lon="-0.13929">
        <ele>1730.5104980469</ele>
        <time>2020-12-18T10:14:17Z</time>
      </trkpt>
      <trkpt lat="42.8345" lon="-0.13934">
        <ele>1730.0297851562</ele>
        <time>2020-12-18T10:14:53Z</time>
      </trkpt>
      <trkpt lat="42.83447" lon="-0.13952">
        <ele>1729.5490722656</ele>
        <time>2020-12-18T10:15:11Z</time>
      </trkpt>
      <trkpt lat="42.83446" lon="-0.13961">
        <ele>1728.587890625</ele>
        <time>2020-12-18T10:15:26Z</time>
      </trkpt>
      <trkpt lat="42.83449" lon="-0.13977">
        <ele>1730.9912109375</ele>
        <time>2020-12-18T10:15:41Z</time>
      </trkpt>
      <trkpt lat="42.8345" lon="-0.1399">
        <ele>1731.4716796875</ele>
        <time>2020-12-18T10:15:55Z</time>
      </trkpt>
      <trkpt lat="42.83449" lon="-0.13992">
        <ele>1732.9135742188</ele>
        <time>2020-12-18T10:15:58Z</time>
      </trkpt>
      <trkpt lat="42.83452" lon="-0.13995">
        <ele>1733.875</ele>
        <time>2020-12-18T10:16:38Z</time>
      </trkpt>
      <trkpt lat="42.83457" lon="-0.1399">
        <ele>1732.9135742188</ele>
        <time>2020-12-18T10:16:53Z</time>
      </trkpt>
      <trkpt lat="42.8346" lon="-0.13989">
        <ele>1733.3942871094</ele>
        <time>2020-12-18T10:16:55Z</time>
      </trkpt>
      <trkpt lat="42.83474" lon="-0.13997">
        <ele>1732.4331054688</ele>
        <time>2020-12-18T10:17:13Z</time>
      </trkpt>
      <trkpt lat="42.83483" lon="-0.14005">
        <ele>1732.4331054688</ele>
        <time>2020-12-18T10:17:29Z</time>
      </trkpt>
      <trkpt lat="42.83491" lon="-0.14006">
        <ele>1730.9912109375</ele>
        <time>2020-12-18T10:17:43Z</time>
      </trkpt>
      <trkpt lat="42.83501" lon="-0.14014">
        <ele>1730.5104980469</ele>
        <time>2020-12-18T10:17:56Z</time>
      </trkpt>
      <trkpt lat="42.83512" lon="-0.1404">
        <ele>1729.5490722656</ele>
        <time>2020-12-18T10:18:18Z</time>
      </trkpt>
      <trkpt lat="42.83516" lon="-0.14048">
        <ele>1728.587890625</ele>
        <time>2020-12-18T10:18:32Z</time>
      </trkpt>
      <trkpt lat="42.8352" lon="-0.14051">
        <ele>1728.1071777344</ele>
        <time>2020-12-18T10:18:45Z</time>
      </trkpt>
      <trkpt lat="42.8352" lon="-0.14059">
        <ele>1728.1071777344</ele>
        <time>2020-12-18T10:18:52Z</time>
      </trkpt>
      <trkpt lat="42.83508" lon="-0.14083">
        <ele>1730.0297851562</ele>
        <time>2020-12-18T10:19:14Z</time>
      </trkpt>
      <trkpt lat="42.835" lon="-0.14105">
        <ele>1730.9912109375</ele>
        <time>2020-12-18T10:19:33Z</time>
      </trkpt>
      <trkpt lat="42.83487" lon="-0.14125">
        <ele>1731.4716796875</ele>
        <time>2020-12-18T10:19:53Z</time>
      </trkpt>
      <trkpt lat="42.83478" lon="-0.14133">
        <ele>1732.9135742188</ele>
        <time>2020-12-18T10:20:05Z</time>
      </trkpt>
      <trkpt lat="42.83466" lon="-0.14144">
        <ele>1733.3942871094</ele>
        <time>2020-12-18T10:20:22Z</time>
      </trkpt>
      <trkpt lat="42.83464" lon="-0.14145">
        <ele>1733.875</ele>
        <time>2020-12-18T10:20:25Z</time>
      </trkpt>
      <trkpt lat="42.83447" lon="-0.14154">
        <ele>1732.9135742188</ele>
        <time>2020-12-18T10:20:44Z</time>
      </trkpt>
      <trkpt lat="42.83432" lon="-0.14162">
        <ele>1732.9135742188</ele>
        <time>2020-12-18T10:21:02Z</time>
      </trkpt>
      <trkpt lat="42.83416" lon="-0.14161">
        <ele>1732.4331054688</ele>
        <time>2020-12-18T10:21:19Z</time>
      </trkpt>
      <trkpt lat="42.834" lon="-0.1417">
        <ele>1731.4716796875</ele>
        <time>2020-12-18T10:21:38Z</time>
      </trkpt>
      <trkpt lat="42.83384" lon="-0.14176">
        <ele>1730.0297851562</ele>
        <time>2020-12-18T10:21:55Z</time>
      </trkpt>
      <trkpt lat="42.83369" lon="-0.14182">
        <ele>1730.0297851562</ele>
        <time>2020-12-18T10:22:12Z</time>
      </trkpt>
      <trkpt lat="42.83355" lon="-0.14183">
        <ele>1730.9912109375</ele>
        <time>2020-12-18T10:22:27Z</time>
      </trkpt>
      <trkpt lat="42.83342" lon="-0.14178">
        <ele>1730.9912109375</ele>
        <time>2020-12-18T10:22:43Z</time>
      </trkpt>
      <trkpt lat="42.83328" lon="-0.14168">
        <ele>1731.9523925781</ele>
        <time>2020-12-18T10:22:58Z</time>
      </trkpt>
      <trkpt lat="42.83314" lon="-0.14161">
        <ele>1730.5104980469</ele>
        <time>2020-12-18T10:23:17Z</time>
      </trkpt>
      <trkpt lat="42.83299" lon="-0.14161">
        <ele>1729.5490722656</ele>
        <time>2020-12-18T10:23:33Z</time>
      </trkpt>
      <trkpt lat="42.83281" lon="-0.14164">
        <ele>1731.4716796875</ele>
        <time>2020-12-18T10:23:52Z</time>
      </trkpt>
      <trkpt lat="42.83273" lon="-0.14165">
        <ele>1731.4716796875</ele>
        <time>2020-12-18T10:24:00Z</time>
      </trkpt>
      <trkpt lat="42.83269" lon="-0.14163">
        <ele>1732.4331054688</ele>
        <time>2020-12-18T10:24:05Z</time>
      </trkpt>
      <trkpt lat="42.83244" lon="-0.1416">
        <ele>1732.4331054688</ele>
        <time>2020-12-18T10:24:30Z</time>
      </trkpt>
      <trkpt lat="42.83222" lon="-0.14153">
        <ele>1733.875</ele>
        <time>2020-12-18T10:24:51Z</time>
      </trkpt>
      <trkpt lat="42.83204" lon="-0.14146">
        <ele>1732.9135742188</ele>
        <time>2020-12-18T10:25:10Z</time>
      </trkpt>
      <trkpt lat="42.83188" lon="-0.14147">
        <ele>1734.8364257812</ele>
        <time>2020-12-18T10:25:28Z</time>
      </trkpt>
      <trkpt lat="42.83176" lon="-0.14154">
        <ele>1734.8364257812</ele>
        <time>2020-12-18T10:25:46Z</time>
      </trkpt>
      <trkpt lat="42.83172" lon="-0.14156">
        <ele>1733.3942871094</ele>
        <time>2020-12-18T10:26:02Z</time>
      </trkpt>
      <trkpt lat="42.8317" lon="-0.14155">
        <ele>1735.3168945312</ele>
        <time>2020-12-18T10:26:26Z</time>
      </trkpt>
      <trkpt lat="42.83169" lon="-0.14154">
        <ele>1734.3557128906</ele>
        <time>2020-12-18T10:26:59Z</time>
      </trkpt>
      <trkpt lat="42.83162" lon="-0.14158">
        <ele>1733.3942871094</ele>
        <time>2020-12-18T10:27:14Z</time>
      </trkpt>
      <trkpt lat="42.83144" lon="-0.1417">
        <ele>1734.8364257812</ele>
        <time>2020-12-18T10:27:37Z</time>
      </trkpt>
      <trkpt lat="42.83125" lon="-0.14178">
        <ele>1732.9135742188</ele>
        <time>2020-12-18T10:27:58Z</time>
      </trkpt>
      <trkpt lat="42.83106" lon="-0.14182">
        <ele>1732.4331054688</ele>
        <time>2020-12-18T10:28:18Z</time>
      </trkpt>
      <trkpt lat="42.83089" lon="-0.14178">
        <ele>1734.3557128906</ele>
        <time>2020-12-18T10:28:35Z</time>
      </trkpt>
      <trkpt lat="42.83083" lon="-0.14176">
        <ele>1733.3942871094</ele>
        <time>2020-12-18T10:28:41Z</time>
      </trkpt>
      <trkpt lat="42.83061" lon="-0.14178">
        <ele>1731.9523925781</ele>
        <time>2020-12-18T10:29:06Z</time>
      </trkpt>
      <trkpt lat="42.8306" lon="-0.14178">
        <ele>1731.9523925781</ele>
        <time>2020-12-18T10:29:07Z</time>
      </trkpt>
      <trkpt lat="42.83043" lon="-0.14172">
        <ele>1732.9135742188</ele>
        <time>2020-12-18T10:29:23Z</time>
      </trkpt>
      <trkpt lat="42.83025" lon="-0.14164">
        <ele>1733.875</ele>
        <time>2020-12-18T10:29:42Z</time>
      </trkpt>
      <trkpt lat="42.8301" lon="-0.14161">
        <ele>1731.9523925781</ele>
        <time>2020-12-18T10:29:58Z</time>
      </trkpt>
      <trkpt lat="42.82995" lon="-0.14152">
        <ele>1730.5104980469</ele>
        <time>2020-12-18T10:30:15Z</time>
      </trkpt>
      <trkpt lat="42.82987" lon="-0.1415">
        <ele>1730.9912109375</ele>
        <time>2020-12-18T10:30:24Z</time>
      </trkpt>
      <trkpt lat="42.82969" lon="-0.14142">
        <ele>1730.0297851562</ele>
        <time>2020-12-18T10:30:44Z</time>
      </trkpt>
      <trkpt lat="42.82967" lon="-0.14141">
        <ele>1730.5104980469</ele>
        <time>2020-12-18T10:30:46Z</time>
      </trkpt>
      <trkpt lat="42.8295" lon="-0.14126">
        <ele>1730.0297851562</ele>
        <time>2020-12-18T10:31:06Z</time>
      </trkpt>
      <trkpt lat="42.82936" lon="-0.14117">
        <ele>1730.0297851562</ele>
        <time>2020-12-18T10:31:22Z</time>
      </trkpt>
      <trkpt lat="42.82932" lon="-0.14118">
        <ele>1728.1071777344</ele>
        <time>2020-12-18T10:31:27Z</time>
      </trkpt>
      <trkpt lat="42.8292" lon="-0.14114">
        <ele>1728.587890625</ele>
        <time>2020-12-18T10:31:41Z</time>
      </trkpt>
      <trkpt lat="42.82899" lon="-0.141">
        <ele>1728.1071777344</ele>
        <time>2020-12-18T10:32:05Z</time>
      </trkpt>
      <trkpt lat="42.82898" lon="-0.14099">
        <ele>1728.587890625</ele>
        <time>2020-12-18T10:32:07Z</time>
      </trkpt>
      <trkpt lat="42.82885" lon="-0.14098">
        <ele>1728.587890625</ele>
        <time>2020-12-18T10:32:20Z</time>
      </trkpt>
      <trkpt lat="42.82865" lon="-0.14088">
        <ele>1728.1071777344</ele>
        <time>2020-12-18T10:32:41Z</time>
      </trkpt>
      <trkpt lat="42.82849" lon="-0.14073">
        <ele>1728.1071777344</ele>
        <time>2020-12-18T10:33:02Z</time>
      </trkpt>
      <trkpt lat="42.82848" lon="-0.14071">
        <ele>1727.6264648438</ele>
        <time>2020-12-18T10:33:04Z</time>
      </trkpt>
      <trkpt lat="42.82836" lon="-0.14055">
        <ele>1725.2231445312</ele>
        <time>2020-12-18T10:33:24Z</time>
      </trkpt>
      <trkpt lat="42.82833" lon="-0.14059">
        <ele>1726.1845703125</ele>
        <time>2020-12-18T10:33:45Z</time>
      </trkpt>
      <trkpt lat="42.82826" lon="-0.14061">
        <ele>1725.7038574219</ele>
        <time>2020-12-18T10:33:59Z</time>
      </trkpt>
      <trkpt lat="42.82824" lon="-0.14062">
        <ele>1727.6264648438</ele>
        <time>2020-12-18T10:34:03Z</time>
      </trkpt>
      <trkpt lat="42.82822" lon="-0.14064">
        <ele>1728.1071777344</ele>
        <time>2020-12-18T10:34:18Z</time>
      </trkpt>
      <trkpt lat="42.82822" lon="-0.14065">
        <ele>1727.6264648438</ele>
        <time>2020-12-18T10:34:26Z</time>
      </trkpt>
      <trkpt lat="42.82819" lon="-0.14066">
        <ele>1726.6652832031</ele>
        <time>2020-12-18T10:35:24Z</time>
      </trkpt>
      <trkpt lat="42.82816" lon="-0.14067">
        <ele>1725.7038574219</ele>
        <time>2020-12-18T10:35:30Z</time>
      </trkpt>
      <trkpt lat="42.82805" lon="-0.14066">
        <ele>1727.6264648438</ele>
        <time>2020-12-18T10:35:46Z</time>
      </trkpt>
      <trkpt lat="42.82798" lon="-0.14065">
        <ele>1728.1071777344</ele>
        <time>2020-12-18T10:36:00Z</time>
      </trkpt>
      <trkpt lat="42.82789" lon="-0.14064">
        <ele>1728.587890625</ele>
        <time>2020-12-18T10:36:15Z</time>
      </trkpt>
      <trkpt lat="42.82784" lon="-0.14055">
        <ele>1726.6652832031</ele>
        <time>2020-12-18T10:36:27Z</time>
      </trkpt>
      <trkpt lat="42.82774" lon="-0.14052">
        <ele>1726.1845703125</ele>
        <time>2020-12-18T10:36:42Z</time>
      </trkpt>
      <trkpt lat="42.82765" lon="-0.14054">
        <ele>1728.1071777344</ele>
        <time>2020-12-18T10:36:54Z</time>
      </trkpt>
      <trkpt lat="42.82755" lon="-0.14049">
        <ele>1728.587890625</ele>
        <time>2020-12-18T10:37:10Z</time>
      </trkpt>
      <trkpt lat="42.82747" lon="-0.14047">
        <ele>1728.1071777344</ele>
        <time>2020-12-18T10:37:27Z</time>
      </trkpt>
      <trkpt lat="42.82739" lon="-0.14047">
        <ele>1728.587890625</ele>
        <time>2020-12-18T10:37:39Z</time>
      </trkpt>
      <trkpt lat="42.82728" lon="-0.14049">
        <ele>1730.5104980469</ele>
        <time>2020-12-18T10:37:56Z</time>
      </trkpt>
      <trkpt lat="42.8272" lon="-0.1404">
        <ele>1731.9523925781</ele>
        <time>2020-12-18T10:38:11Z</time>
      </trkpt>
      <trkpt lat="42.8271" lon="-0.14033">
        <ele>1732.9135742188</ele>
        <time>2020-12-18T10:38:26Z</time>
      </trkpt>
      <trkpt lat="42.827" lon="-0.14029">
        <ele>1734.8364257812</ele>
        <time>2020-12-18T10:38:43Z</time>
      </trkpt>
      <trkpt lat="42.82694" lon="-0.14029">
        <ele>1738.2009277344</ele>
        <time>2020-12-18T10:38:57Z</time>
      </trkpt>
      <trkpt lat="42.8269" lon="-0.14026">
        <ele>1735.7976074219</ele>
        <time>2020-12-18T10:39:03Z</time>
      </trkpt>
      <trkpt lat="42.82684" lon="-0.14027">
        <ele>1737.7202148438</ele>
        <time>2020-12-18T10:39:11Z</time>
      </trkpt>
      <trkpt lat="42.82673" lon="-0.14016">
        <ele>1736.7587890625</ele>
        <time>2020-12-18T10:39:31Z</time>
      </trkpt>
      <trkpt lat="42.82663" lon="-0.14011">
        <ele>1736.2783203125</ele>
        <time>2020-12-18T10:39:46Z</time>
      </trkpt>
      <trkpt lat="42.82654" lon="-0.14004">
        <ele>1733.875</ele>
        <time>2020-12-18T10:40:04Z</time>
      </trkpt>
      <trkpt lat="42.82639" lon="-0.13998">
        <ele>1732.9135742188</ele>
        <time>2020-12-18T10:40:23Z</time>
      </trkpt>
      <trkpt lat="42.82632" lon="-0.13991">
        <ele>1732.9135742188</ele>
        <time>2020-12-18T10:40:36Z</time>
      </trkpt>
      <trkpt lat="42.82633" lon="-0.13986">
        <ele>1730.0297851562</ele>
        <time>2020-12-18T10:40:53Z</time>
      </trkpt>
      <trkpt lat="42.82638" lon="-0.13983">
        <ele>1731.4716796875</ele>
        <time>2020-12-18T10:41:12Z</time>
      </trkpt>
      <trkpt lat="42.82654" lon="-0.13988">
        <ele>1730.5104980469</ele>
        <time>2020-12-18T10:41:31Z</time>
      </trkpt>
      <trkpt lat="42.8266" lon="-0.13995">
        <ele>1730.5104980469</ele>
        <time>2020-12-18T10:41:45Z</time>
      </trkpt>
      <trkpt lat="42.8266" lon="-0.13998">
        <ele>1727.1459960938</ele>
        <time>2020-12-18T10:41:54Z</time>
      </trkpt>
      <trkpt lat="42.8266" lon="-0.13999">
        <ele>1730.5104980469</ele>
        <time>2020-12-18T10:41:59Z</time>
      </trkpt>
      <trkpt lat="42.82666" lon="-0.13995">
        <ele>1730.5104980469</ele>
        <time>2020-12-18T10:42:16Z</time>
      </trkpt>
      <trkpt lat="42.82667" lon="-0.13979">
        <ele>1730.5104980469</ele>
        <time>2020-12-18T10:42:30Z</time>
      </trkpt>
      <trkpt lat="42.82671" lon="-0.13968">
        <ele>1732.4331054688</ele>
        <time>2020-12-18T10:42:42Z</time>
      </trkpt>
      <trkpt lat="42.8267" lon="-0.13963">
        <ele>1731.9523925781</ele>
        <time>2020-12-18T10:42:51Z</time>
      </trkpt>
      <trkpt lat="42.8267" lon="-0.13961">
        <ele>1732.9135742188</ele>
        <time>2020-12-18T10:42:56Z</time>
      </trkpt>
      <trkpt lat="42.82668" lon="-0.13959">
        <ele>1731.4716796875</ele>
        <time>2020-12-18T10:42:58Z</time>
      </trkpt>
      <trkpt lat="42.82667" lon="-0.13954">
        <ele>1731.9523925781</ele>
        <time>2020-12-18T10:43:07Z</time>
      </trkpt>
      <trkpt lat="42.82664" lon="-0.13943">
        <ele>1730.9912109375</ele>
        <time>2020-12-18T10:43:19Z</time>
      </trkpt>
      <trkpt lat="42.82668" lon="-0.13933">
        <ele>1730.9912109375</ele>
        <time>2020-12-18T10:43:31Z</time>
      </trkpt>
      <trkpt lat="42.8266" lon="-0.13917">
        <ele>1731.9523925781</ele>
        <time>2020-12-18T10:43:59Z</time>
      </trkpt>
      <trkpt lat="42.82659" lon="-0.13924">
        <ele>1732.9135742188</ele>
        <time>2020-12-18T10:44:35Z</time>
      </trkpt>
      <trkpt lat="42.82658" lon="-0.1392">
        <ele>1732.4331054688</ele>
        <time>2020-12-18T10:45:15Z</time>
      </trkpt>
      <trkpt lat="42.82657" lon="-0.13943">
        <ele>1731.4716796875</ele>
        <time>2020-12-18T10:45:45Z</time>
      </trkpt>
      <trkpt lat="42.82665" lon="-0.13917">
        <ele>1732.4331054688</ele>
        <time>2020-12-18T10:47:16Z</time>
      </trkpt>
      <trkpt lat="42.8266" lon="-0.13915">
        <ele>1733.3942871094</ele>
        <time>2020-12-18T10:47:30Z</time>
      </trkpt>
      <trkpt lat="42.82673" lon="-0.139">
        <ele>1730.9912109375</ele>
        <time>2020-12-18T10:49:06Z</time>
      </trkpt>
      <trkpt lat="42.82647" lon="-0.13909">
        <ele>1731.9523925781</ele>
        <time>2020-12-18T10:51:43Z</time>
      </trkpt>
      <trkpt lat="42.82657" lon="-0.1393">
        <ele>1729.5490722656</ele>
        <time>2020-12-18T10:53:08Z</time>
      </trkpt>
      <trkpt lat="42.82673" lon="-0.13901">
        <ele>1730.0297851562</ele>
        <time>2020-12-18T10:57:51Z</time>
      </trkpt>
      <trkpt lat="42.82666" lon="-0.139">
        <ele>1731.9523925781</ele>
        <time>2020-12-18T10:58:31Z</time>
      </trkpt>
      <trkpt lat="42.82665" lon="-0.13898">
        <ele>1732.4331054688</ele>
        <time>2020-12-18T11:05:29Z</time>
      </trkpt>
      <trkpt lat="42.82644" lon="-0.13866">
        <ele>1730.5104980469</ele>
        <time>2020-12-18T11:07:30Z</time>
      </trkpt>
      <trkpt lat="42.82617" lon="-0.13862">
        <ele>1728.1071777344</ele>
        <time>2020-12-18T11:09:31Z</time>
      </trkpt>
      <trkpt lat="42.82668" lon="-0.1388">
        <ele>1730.5104980469</ele>
        <time>2020-12-18T11:12:13Z</time>
      </trkpt>
      <trkpt lat="42.82678" lon="-0.13901">
        <ele>1730.9912109375</ele>
        <time>2020-12-18T11:13:03Z</time>
      </trkpt>
      <trkpt lat="42.82675" lon="-0.13882">
        <ele>1731.4716796875</ele>
        <time>2020-12-18T11:14:38Z</time>
      </trkpt>
      <trkpt lat="42.82696" lon="-0.1388">
        <ele>1733.3942871094</ele>
        <time>2020-12-18T11:14:59Z</time>
      </trkpt>
      <trkpt lat="42.8268" lon="-0.13872">
        <ele>1734.8364257812</ele>
        <time>2020-12-18T11:15:07Z</time>
      </trkpt>
      <trkpt lat="42.82673" lon="-0.13873">
        <ele>1735.3168945312</ele>
        <time>2020-12-18T11:15:22Z</time>
      </trkpt>
      <trkpt lat="42.82666" lon="-0.13851">
        <ele>1735.7976074219</ele>
        <time>2020-12-18T11:15:58Z</time>
      </trkpt>
      <trkpt lat="42.82681" lon="-0.13872">
        <ele>1738.2009277344</ele>
        <time>2020-12-18T11:16:33Z</time>
      </trkpt>
      <trkpt lat="42.82691" lon="-0.13886">
        <ele>1741.5656738281</ele>
        <time>2020-12-18T11:17:05Z</time>
      </trkpt>
      <trkpt lat="42.82698" lon="-0.13888">
        <ele>1743.0075683594</ele>
        <time>2020-12-18T11:17:54Z</time>
      </trkpt>
      <trkpt lat="42.82683" lon="-0.13882">
        <ele>1745.4108886719</ele>
        <time>2020-12-18T11:18:19Z</time>
      </trkpt>
      <trkpt lat="42.82637" lon="-0.13863">
        <ele>1745.8916015625</ele>
        <time>2020-12-18T11:18:32Z</time>
      </trkpt>
      <trkpt lat="42.82637" lon="-0.13862">
        <ele>1746.3723144531</ele>
        <time>2020-12-18T11:18:50Z</time>
      </trkpt>
      <trkpt lat="42.82649" lon="-0.13879">
        <ele>1746.3723144531</ele>
        <time>2020-12-18T11:19:24Z</time>
      </trkpt>
      <trkpt lat="42.82661" lon="-0.13932">
        <ele>1747.8142089844</ele>
        <time>2020-12-18T11:22:07Z</time>
      </trkpt>
      <trkpt lat="42.82624" lon="-0.13912">
        <ele>1748.775390625</ele>
        <time>2020-12-18T11:23:12Z</time>
      </trkpt>
      <trkpt lat="42.82598" lon="-0.139">
        <ele>1748.775390625</ele>
        <time>2020-12-18T11:23:27Z</time>
      </trkpt>
      <trkpt lat="42.82591" lon="-0.13897">
        <ele>1747.8142089844</ele>
        <time>2020-12-18T11:23:43Z</time>
      </trkpt>
      <trkpt lat="42.82565" lon="-0.13884">
        <ele>1746.8527832031</ele>
        <time>2020-12-18T11:23:58Z</time>
      </trkpt>
      <trkpt lat="42.82567" lon="-0.13886">
        <ele>1744.4494628906</ele>
        <time>2020-12-18T11:24:20Z</time>
      </trkpt>
      <trkpt lat="42.82594" lon="-0.13899">
        <ele>1743.0075683594</ele>
        <time>2020-12-18T11:24:40Z</time>
      </trkpt>
      <trkpt lat="42.8261" lon="-0.13908">
        <ele>1743.0075683594</ele>
        <time>2020-12-18T11:24:50Z</time>
      </trkpt>
      <trkpt lat="42.82643" lon="-0.13924">
        <ele>1741.5656738281</ele>
        <time>2020-12-18T11:25:23Z</time>
      </trkpt>
      <trkpt lat="42.82712" lon="-0.13954">
        <ele>1741.0849609375</ele>
        <time>2020-12-18T11:27:50Z</time>
      </trkpt>
      <trkpt lat="42.82652" lon="-0.13961">
        <ele>1742.0463867188</ele>
        <time>2020-12-18T11:28:22Z</time>
      </trkpt>
      <trkpt lat="42.82633" lon="-0.13959">
        <ele>1743.0075683594</ele>
        <time>2020-12-18T11:29:02Z</time>
      </trkpt>
      <trkpt lat="42.8263" lon="-0.13957">
        <ele>1743.0075683594</ele>
        <time>2020-12-18T11:29:19Z</time>
      </trkpt>
      <trkpt lat="42.82628" lon="-0.13924">
        <ele>1742.5270996094</ele>
        <time>2020-12-18T11:31:37Z</time>
      </trkpt>
      <trkpt lat="42.82653" lon="-0.13935">
        <ele>1742.0463867188</ele>
        <time>2020-12-18T11:32:28Z</time>
      </trkpt>
      <trkpt lat="42.82656" lon="-0.1395">
        <ele>1742.0463867188</ele>
        <time>2020-12-18T11:32:42Z</time>
      </trkpt>
      <trkpt lat="42.82664" lon="-0.13958">
        <ele>1741.5656738281</ele>
        <time>2020-12-18T11:32:53Z</time>
      </trkpt>
      <trkpt lat="42.82669" lon="-0.13969">
        <ele>1741.5656738281</ele>
        <time>2020-12-18T11:33:05Z</time>
      </trkpt>
      <trkpt lat="42.82672" lon="-0.13977">
        <ele>1742.0463867188</ele>
        <time>2020-12-18T11:33:19Z</time>
      </trkpt>
      <trkpt lat="42.82677" lon="-0.13982">
        <ele>1742.0463867188</ele>
        <time>2020-12-18T11:33:31Z</time>
      </trkpt>
      <trkpt lat="42.82694" lon="-0.13985">
        <ele>1741.0849609375</ele>
        <time>2020-12-18T11:33:56Z</time>
      </trkpt>
      <trkpt lat="42.82706" lon="-0.13986">
        <ele>1741.0849609375</ele>
        <time>2020-12-18T11:34:09Z</time>
      </trkpt>
      <trkpt lat="42.82714" lon="-0.1399">
        <ele>1740.1237792969</ele>
        <time>2020-12-18T11:34:19Z</time>
      </trkpt>
      <trkpt lat="42.82724" lon="-0.1399">
        <ele>1739.6428222656</ele>
        <time>2020-12-18T11:34:30Z</time>
      </trkpt>
      <trkpt lat="42.82735" lon="-0.13989">
        <ele>1738.681640625</ele>
        <time>2020-12-18T11:34:43Z</time>
      </trkpt>
      <trkpt lat="42.8274" lon="-0.13992">
        <ele>1738.681640625</ele>
        <time>2020-12-18T11:34:51Z</time>
      </trkpt>
      <trkpt lat="42.82756" lon="-0.13993">
        <ele>1737.7202148438</ele>
        <time>2020-12-18T11:35:08Z</time>
      </trkpt>
      <trkpt lat="42.82762" lon="-0.13995">
        <ele>1738.681640625</ele>
        <time>2020-12-18T11:35:15Z</time>
      </trkpt>
      <trkpt lat="42.82779" lon="-0.14006">
        <ele>1737.2395019531</ele>
        <time>2020-12-18T11:35:34Z</time>
      </trkpt>
      <trkpt lat="42.8279" lon="-0.14013">
        <ele>1737.7202148438</ele>
        <time>2020-12-18T11:35:47Z</time>
      </trkpt>
      <trkpt lat="42.828" lon="-0.14022">
        <ele>1737.7202148438</ele>
        <time>2020-12-18T11:36:02Z</time>
      </trkpt>
      <trkpt lat="42.82811" lon="-0.14028">
        <ele>1737.2395019531</ele>
        <time>2020-12-18T11:36:16Z</time>
      </trkpt>
      <trkpt lat="42.82801" lon="-0.14031">
        <ele>1736.7587890625</ele>
        <time>2020-12-18T11:37:05Z</time>
      </trkpt>
      <trkpt lat="42.8281" lon="-0.14045">
        <ele>1738.2009277344</ele>
        <time>2020-12-18T11:37:19Z</time>
      </trkpt>
      <trkpt lat="42.82815" lon="-0.14051">
        <ele>1737.7202148438</ele>
        <time>2020-12-18T11:37:29Z</time>
      </trkpt>
      <trkpt lat="42.82827" lon="-0.14056">
        <ele>1737.2395019531</ele>
        <time>2020-12-18T11:37:47Z</time>
      </trkpt>
      <trkpt lat="42.82831" lon="-0.14065">
        <ele>1738.681640625</ele>
        <time>2020-12-18T11:38:01Z</time>
      </trkpt>
      <trkpt lat="42.82838" lon="-0.14074">
        <ele>1739.162109375</ele>
        <time>2020-12-18T11:38:14Z</time>
      </trkpt>
      <trkpt lat="42.82848" lon="-0.14086">
        <ele>1741.0849609375</ele>
        <time>2020-12-18T11:38:28Z</time>
      </trkpt>
      <trkpt lat="42.82853" lon="-0.14086">
        <ele>1739.6428222656</ele>
        <time>2020-12-18T11:38:45Z</time>
      </trkpt>
      <trkpt lat="42.8286" lon="-0.14094">
        <ele>1741.0849609375</ele>
        <time>2020-12-18T11:39:44Z</time>
      </trkpt>
      <trkpt lat="42.82874" lon="-0.14104">
        <ele>1740.6042480469</ele>
        <time>2020-12-18T11:40:02Z</time>
      </trkpt>
      <trkpt lat="42.82886" lon="-0.14106">
        <ele>1740.6042480469</ele>
        <time>2020-12-18T11:40:15Z</time>
      </trkpt>
      <trkpt lat="42.82889" lon="-0.14105">
        <ele>1740.6042480469</ele>
        <time>2020-12-18T11:40:18Z</time>
      </trkpt>
      <trkpt lat="42.82908" lon="-0.14114">
        <ele>1740.1237792969</ele>
        <time>2020-12-18T11:40:38Z</time>
      </trkpt>
      <trkpt lat="42.82921" lon="-0.14127">
        <ele>1740.1237792969</ele>
        <time>2020-12-18T11:40:56Z</time>
      </trkpt>
      <trkpt lat="42.82935" lon="-0.14127">
        <ele>1740.1237792969</ele>
        <time>2020-12-18T11:41:12Z</time>
      </trkpt>
      <trkpt lat="42.82938" lon="-0.14128">
        <ele>1740.1237792969</ele>
        <time>2020-12-18T11:41:15Z</time>
      </trkpt>
      <trkpt lat="42.82956" lon="-0.14143">
        <ele>1739.6428222656</ele>
        <time>2020-12-18T11:41:36Z</time>
      </trkpt>
      <trkpt lat="42.82961" lon="-0.14146">
        <ele>1741.0849609375</ele>
        <time>2020-12-18T11:41:42Z</time>
      </trkpt>
      <trkpt lat="42.82971" lon="-0.14153">
        <ele>1741.5656738281</ele>
        <time>2020-12-18T11:41:55Z</time>
      </trkpt>
      <trkpt lat="42.82981" lon="-0.14156">
        <ele>1742.5270996094</ele>
        <time>2020-12-18T11:42:07Z</time>
      </trkpt>
      <trkpt lat="42.82996" lon="-0.14161">
        <ele>1742.0463867188</ele>
        <time>2020-12-18T11:42:21Z</time>
      </trkpt>
      <trkpt lat="42.83008" lon="-0.14168">
        <ele>1743.0075683594</ele>
        <time>2020-12-18T11:42:36Z</time>
      </trkpt>
      <trkpt lat="42.83018" lon="-0.1417">
        <ele>1744.4494628906</ele>
        <time>2020-12-18T11:42:47Z</time>
      </trkpt>
      <trkpt lat="42.83029" lon="-0.14175">
        <ele>1744.9301757812</ele>
        <time>2020-12-18T11:42:59Z</time>
      </trkpt>
      <trkpt lat="42.83047" lon="-0.14182">
        <ele>1743.9689941406</ele>
        <time>2020-12-18T11:43:17Z</time>
      </trkpt>
      <trkpt lat="42.83056" lon="-0.14184">
        <ele>1744.4494628906</ele>
        <time>2020-12-18T11:43:27Z</time>
      </trkpt>
      <trkpt lat="42.83073" lon="-0.14183">
        <ele>1743.9689941406</ele>
        <time>2020-12-18T11:43:43Z</time>
      </trkpt>
      <trkpt lat="42.83089" lon="-0.14185">
        <ele>1744.4494628906</ele>
        <time>2020-12-18T11:43:59Z</time>
      </trkpt>
      <trkpt lat="42.83102" lon="-0.14187">
        <ele>1743.9689941406</ele>
        <time>2020-12-18T11:44:15Z</time>
      </trkpt>
      <trkpt lat="42.8312" lon="-0.14185">
        <ele>1743.9689941406</ele>
        <time>2020-12-18T11:44:31Z</time>
      </trkpt>
      <trkpt lat="42.83131" lon="-0.14182">
        <ele>1744.4494628906</ele>
        <time>2020-12-18T11:44:40Z</time>
      </trkpt>
      <trkpt lat="42.83133" lon="-0.14181">
        <ele>1744.9301757812</ele>
        <time>2020-12-18T11:44:43Z</time>
      </trkpt>
      <trkpt lat="42.83146" lon="-0.14175">
        <ele>1745.4108886719</ele>
        <time>2020-12-18T11:44:58Z</time>
      </trkpt>
      <trkpt lat="42.83167" lon="-0.14165">
        <ele>1744.9301757812</ele>
        <time>2020-12-18T11:45:19Z</time>
      </trkpt>
      <trkpt lat="42.83183" lon="-0.14155">
        <ele>1746.3723144531</ele>
        <time>2020-12-18T11:45:36Z</time>
      </trkpt>
      <trkpt lat="42.83202" lon="-0.14154">
        <ele>1744.4494628906</ele>
        <time>2020-12-18T11:45:54Z</time>
      </trkpt>
      <trkpt lat="42.8322" lon="-0.14159">
        <ele>1744.4494628906</ele>
        <time>2020-12-18T11:46:12Z</time>
      </trkpt>
      <trkpt lat="42.83239" lon="-0.14164">
        <ele>1742.5270996094</ele>
        <time>2020-12-18T11:46:29Z</time>
      </trkpt>
      <trkpt lat="42.83257" lon="-0.14168">
        <ele>1741.5656738281</ele>
        <time>2020-12-18T11:46:47Z</time>
      </trkpt>
      <trkpt lat="42.83277" lon="-0.1417">
        <ele>1741.0849609375</ele>
        <time>2020-12-18T11:47:08Z</time>
      </trkpt>
      <trkpt lat="42.83288" lon="-0.14169">
        <ele>1739.162109375</ele>
        <time>2020-12-18T11:47:21Z</time>
      </trkpt>
      <trkpt lat="42.83302" lon="-0.14168">
        <ele>1739.6428222656</ele>
        <time>2020-12-18T11:47:34Z</time>
      </trkpt>
      <trkpt lat="42.83319" lon="-0.14169">
        <ele>1740.6042480469</ele>
        <time>2020-12-18T11:47:51Z</time>
      </trkpt>
      <trkpt lat="42.83325" lon="-0.14171">
        <ele>1740.6042480469</ele>
        <time>2020-12-18T11:47:57Z</time>
      </trkpt>
      <trkpt lat="42.83339" lon="-0.14176">
        <ele>1742.0463867188</ele>
        <time>2020-12-18T11:48:13Z</time>
      </trkpt>
      <trkpt lat="42.83347" lon="-0.1418">
        <ele>1741.5656738281</ele>
        <time>2020-12-18T11:48:33Z</time>
      </trkpt>
      <trkpt lat="42.83364" lon="-0.14182">
        <ele>1740.1237792969</ele>
        <time>2020-12-18T11:48:49Z</time>
      </trkpt>
      <trkpt lat="42.8338" lon="-0.1418">
        <ele>1741.5656738281</ele>
        <time>2020-12-18T11:49:04Z</time>
      </trkpt>
      <trkpt lat="42.83396" lon="-0.14175">
        <ele>1742.0463867188</ele>
        <time>2020-12-18T11:49:19Z</time>
      </trkpt>
      <trkpt lat="42.83413" lon="-0.14165">
        <ele>1742.0463867188</ele>
        <time>2020-12-18T11:49:37Z</time>
      </trkpt>
      <trkpt lat="42.83424" lon="-0.14161">
        <ele>1742.0463867188</ele>
        <time>2020-12-18T11:49:48Z</time>
      </trkpt>
      <trkpt lat="42.83436" lon="-0.14161">
        <ele>1742.5270996094</ele>
        <time>2020-12-18T11:50:02Z</time>
      </trkpt>
      <trkpt lat="42.83437" lon="-0.1416">
        <ele>1742.5270996094</ele>
        <time>2020-12-18T11:50:03Z</time>
      </trkpt>
      <trkpt lat="42.83455" lon="-0.14149">
        <ele>1742.5270996094</ele>
        <time>2020-12-18T11:50:21Z</time>
      </trkpt>
      <trkpt lat="42.83461" lon="-0.14147">
        <ele>1742.5270996094</ele>
        <time>2020-12-18T11:50:26Z</time>
      </trkpt>
      <trkpt lat="42.8348" lon="-0.14139">
        <ele>1742.5270996094</ele>
        <time>2020-12-18T11:50:42Z</time>
      </trkpt>
      <trkpt lat="42.8349" lon="-0.1413">
        <ele>1742.0463867188</ele>
        <time>2020-12-18T11:50:56Z</time>
      </trkpt>
      <trkpt lat="42.83502" lon="-0.14113">
        <ele>1741.5656738281</ele>
        <time>2020-12-18T11:51:14Z</time>
      </trkpt>
      <trkpt lat="42.83511" lon="-0.14088">
        <ele>1741.5656738281</ele>
        <time>2020-12-18T11:51:34Z</time>
      </trkpt>
      <trkpt lat="42.83521" lon="-0.14064">
        <ele>1740.6042480469</ele>
        <time>2020-12-18T11:51:53Z</time>
      </trkpt>
      <trkpt lat="42.83516" lon="-0.14059">
        <ele>1740.1237792969</ele>
        <time>2020-12-18T11:52:06Z</time>
      </trkpt>
      <trkpt lat="42.83522" lon="-0.14051">
        <ele>1739.6428222656</ele>
        <time>2020-12-18T11:52:34Z</time>
      </trkpt>
      <trkpt lat="42.83522" lon="-0.1405">
        <ele>1739.6428222656</ele>
        <time>2020-12-18T11:52:35Z</time>
      </trkpt>
      <trkpt lat="42.83519" lon="-0.1404">
        <ele>1740.1237792969</ele>
        <time>2020-12-18T11:52:42Z</time>
      </trkpt>
      <trkpt lat="42.83511" lon="-0.14021">
        <ele>1739.6428222656</ele>
        <time>2020-12-18T11:52:57Z</time>
      </trkpt>
      <trkpt lat="42.83503" lon="-0.14008">
        <ele>1740.6042480469</ele>
        <time>2020-12-18T11:53:14Z</time>
      </trkpt>
      <trkpt lat="42.835" lon="-0.14003">
        <ele>1740.6042480469</ele>
        <time>2020-12-18T11:53:20Z</time>
      </trkpt>
      <trkpt lat="42.83489" lon="-0.13991">
        <ele>1743.48828125</ele>
        <time>2020-12-18T11:53:35Z</time>
      </trkpt>
      <trkpt lat="42.83483" lon="-0.13974">
        <ele>1744.9301757812</ele>
        <time>2020-12-18T11:53:52Z</time>
      </trkpt>
      <trkpt lat="42.83482" lon="-0.13965">
        <ele>1744.4494628906</ele>
        <time>2020-12-18T11:54:01Z</time>
      </trkpt>
      <trkpt lat="42.83483" lon="-0.13944">
        <ele>1743.0075683594</ele>
        <time>2020-12-18T11:54:20Z</time>
      </trkpt>
      <trkpt lat="42.83488" lon="-0.13924">
        <ele>1740.1237792969</ele>
        <time>2020-12-18T11:54:39Z</time>
      </trkpt>
      <trkpt lat="42.83492" lon="-0.13914">
        <ele>1740.1237792969</ele>
        <time>2020-12-18T11:54:49Z</time>
      </trkpt>
      <trkpt lat="42.83493" lon="-0.139">
        <ele>1741.0849609375</ele>
        <time>2020-12-18T11:55:01Z</time>
      </trkpt>
      <trkpt lat="42.83512" lon="-0.13888">
        <ele>1739.162109375</ele>
        <time>2020-12-18T11:55:20Z</time>
      </trkpt>
      <trkpt lat="42.83525" lon="-0.13882">
        <ele>1739.162109375</ele>
        <time>2020-12-18T11:55:37Z</time>
      </trkpt>
      <trkpt lat="42.83526" lon="-0.13876">
        <ele>1737.7202148438</ele>
        <time>2020-12-18T11:55:49Z</time>
      </trkpt>
      <trkpt lat="42.83533" lon="-0.13873">
        <ele>1738.2009277344</ele>
        <time>2020-12-18T11:56:00Z</time>
      </trkpt>
      <trkpt lat="42.83539" lon="-0.1387">
        <ele>1737.2395019531</ele>
        <time>2020-12-18T11:56:12Z</time>
      </trkpt>
      <trkpt lat="42.83553" lon="-0.13868">
        <ele>1737.2395019531</ele>
        <time>2020-12-18T11:56:28Z</time>
      </trkpt>
      <trkpt lat="42.83571" lon="-0.13865">
        <ele>1736.7587890625</ele>
        <time>2020-12-18T11:56:44Z</time>
      </trkpt>
      <trkpt lat="42.83576" lon="-0.13866">
        <ele>1734.8364257812</ele>
        <time>2020-12-18T11:56:52Z</time>
      </trkpt>
      <trkpt lat="42.83577" lon="-0.13866">
        <ele>1735.3168945312</ele>
        <time>2020-12-18T11:56:53Z</time>
      </trkpt>
      <trkpt lat="42.83583" lon="-0.13867">
        <ele>1735.3168945312</ele>
        <time>2020-12-18T11:57:02Z</time>
      </trkpt>
      <trkpt lat="42.83592" lon="-0.13867">
        <ele>1734.8364257812</ele>
        <time>2020-12-18T11:57:07Z</time>
      </trkpt>
      <trkpt lat="42.83611" lon="-0.13866">
        <ele>1732.9135742188</ele>
        <time>2020-12-18T11:57:25Z</time>
      </trkpt>
      <trkpt lat="42.83624" lon="-0.13861">
        <ele>1732.9135742188</ele>
        <time>2020-12-18T11:57:39Z</time>
      </trkpt>
      <trkpt lat="42.83629" lon="-0.13857">
        <ele>1732.9135742188</ele>
        <time>2020-12-18T11:57:50Z</time>
      </trkpt>
      <trkpt lat="42.83641" lon="-0.13844">
        <ele>1731.4716796875</ele>
        <time>2020-12-18T11:58:08Z</time>
      </trkpt>
      <trkpt lat="42.83668" lon="-0.13836">
        <ele>1730.5104980469</ele>
        <time>2020-12-18T11:58:27Z</time>
      </trkpt>
      <trkpt lat="42.83678" lon="-0.13833">
        <ele>1730.5104980469</ele>
        <time>2020-12-18T11:58:46Z</time>
      </trkpt>
      <trkpt lat="42.83688" lon="-0.13836">
        <ele>1730.0297851562</ele>
        <time>2020-12-18T11:59:02Z</time>
      </trkpt>
      <trkpt lat="42.837" lon="-0.13839">
        <ele>1727.6264648438</ele>
        <time>2020-12-18T11:59:23Z</time>
      </trkpt>
      <trkpt lat="42.83716" lon="-0.13837">
        <ele>1725.7038574219</ele>
        <time>2020-12-18T11:59:42Z</time>
      </trkpt>
      <trkpt lat="42.83724" lon="-0.13837">
        <ele>1723.7810058594</ele>
        <time>2020-12-18T11:59:57Z</time>
      </trkpt>
      <trkpt lat="42.83746" lon="-0.13832">
        <ele>1723.3005371094</ele>
        <time>2020-12-18T12:00:14Z</time>
      </trkpt>
      <trkpt lat="42.83759" lon="-0.13832">
        <ele>1721.8583984375</ele>
        <time>2020-12-18T12:00:27Z</time>
      </trkpt>
      <trkpt lat="42.83773" lon="-0.13832">
        <ele>1720.8972167969</ele>
        <time>2020-12-18T12:00:48Z</time>
      </trkpt>
      <trkpt lat="42.83788" lon="-0.13842">
        <ele>1718.974609375</ele>
        <time>2020-12-18T12:01:10Z</time>
      </trkpt>
      <trkpt lat="42.83801" lon="-0.13847">
        <ele>1718.0131835938</ele>
        <time>2020-12-18T12:01:27Z</time>
      </trkpt>
      <trkpt lat="42.83813" lon="-0.13863">
        <ele>1717.0520019531</ele>
        <time>2020-12-18T12:01:47Z</time>
      </trkpt>
      <trkpt lat="42.83824" lon="-0.13869">
        <ele>1716.0905761719</ele>
        <time>2020-12-18T12:02:02Z</time>
      </trkpt>
      <trkpt lat="42.83837" lon="-0.1387">
        <ele>1715.1293945312</ele>
        <time>2020-12-18T12:02:14Z</time>
      </trkpt>
      <trkpt lat="42.83853" lon="-0.13873">
        <ele>1713.6872558594</ele>
        <time>2020-12-18T12:02:31Z</time>
      </trkpt>
      <trkpt lat="42.83855" lon="-0.13871">
        <ele>1714.6486816406</ele>
        <time>2020-12-18T12:02:51Z</time>
      </trkpt>
      <trkpt lat="42.83859" lon="-0.13869">
        <ele>1714.6486816406</ele>
        <time>2020-12-18T12:03:41Z</time>
      </trkpt>
      <trkpt lat="42.83867" lon="-0.1387">
        <ele>1714.16796875</ele>
        <time>2020-12-18T12:04:03Z</time>
      </trkpt>
      <trkpt lat="42.83871" lon="-0.13871">
        <ele>1713.2067871094</ele>
        <time>2020-12-18T12:04:15Z</time>
      </trkpt>
      <trkpt lat="42.83879" lon="-0.13875">
        <ele>1712.2453613281</ele>
        <time>2020-12-18T12:04:29Z</time>
      </trkpt>
      <trkpt lat="42.83882" lon="-0.13874">
        <ele>1711.7648925781</ele>
        <time>2020-12-18T12:04:31Z</time>
      </trkpt>
      <trkpt lat="42.83908" lon="-0.13873">
        <ele>1711.7648925781</ele>
        <time>2020-12-18T12:04:50Z</time>
      </trkpt>
      <trkpt lat="42.83925" lon="-0.13874">
        <ele>1711.7648925781</ele>
        <time>2020-12-18T12:05:05Z</time>
      </trkpt>
      <trkpt lat="42.83928" lon="-0.13873">
        <ele>1712.2453613281</ele>
        <time>2020-12-18T12:05:07Z</time>
      </trkpt>
      <trkpt lat="42.8394" lon="-0.13862">
        <ele>1714.16796875</ele>
        <time>2020-12-18T12:05:21Z</time>
      </trkpt>
      <trkpt lat="42.83948" lon="-0.13861">
        <ele>1713.6872558594</ele>
        <time>2020-12-18T12:05:31Z</time>
      </trkpt>
      <trkpt lat="42.83953" lon="-0.13863">
        <ele>1712.2453613281</ele>
        <time>2020-12-18T12:05:42Z</time>
      </trkpt>
      <trkpt lat="42.83962" lon="-0.13864">
        <ele>1710.8034667969</ele>
        <time>2020-12-18T12:05:56Z</time>
      </trkpt>
      <trkpt lat="42.83982" lon="-0.13862">
        <ele>1709.3615722656</ele>
        <time>2020-12-18T12:06:15Z</time>
      </trkpt>
      <trkpt lat="42.84" lon="-0.13861">
        <ele>1706.4772949219</ele>
        <time>2020-12-18T12:06:31Z</time>
      </trkpt>
      <trkpt lat="42.8401" lon="-0.13855">
        <ele>1706.9580078125</ele>
        <time>2020-12-18T12:06:48Z</time>
      </trkpt>
      <trkpt lat="42.84018" lon="-0.13852">
        <ele>1709.3615722656</ele>
        <time>2020-12-18T12:06:59Z</time>
      </trkpt>
      <trkpt lat="42.84029" lon="-0.13843">
        <ele>1711.2841796875</ele>
        <time>2020-12-18T12:07:15Z</time>
      </trkpt>
      <trkpt lat="42.8404" lon="-0.13843">
        <ele>1712.7260742188</ele>
        <time>2020-12-18T12:07:25Z</time>
      </trkpt>
      <trkpt lat="42.84049" lon="-0.13846">
        <ele>1716.0905761719</ele>
        <time>2020-12-18T12:07:44Z</time>
      </trkpt>
      <trkpt lat="42.84062" lon="-0.13849">
        <ele>1716.5712890625</ele>
        <time>2020-12-18T12:08:02Z</time>
      </trkpt>
      <trkpt lat="42.84077" lon="-0.13851">
        <ele>1719.4553222656</ele>
        <time>2020-12-18T12:08:28Z</time>
      </trkpt>
      <trkpt lat="42.84097" lon="-0.13847">
        <ele>1719.9357910156</ele>
        <time>2020-12-18T12:10:49Z</time>
      </trkpt>
      <trkpt lat="42.84099" lon="-0.13848">
        <ele>1719.9357910156</ele>
        <time>2020-12-18T12:10:51Z</time>
      </trkpt>
      <trkpt lat="42.84107" lon="-0.13857">
        <ele>1719.4553222656</ele>
        <time>2020-12-18T12:11:14Z</time>
      </trkpt>
      <trkpt lat="42.84117" lon="-0.13855">
        <ele>1719.4553222656</ele>
        <time>2020-12-18T12:11:51Z</time>
      </trkpt>
      <trkpt lat="42.8411" lon="-0.13858">
        <ele>1719.9357910156</ele>
        <time>2020-12-18T12:12:46Z</time>
      </trkpt>
      <trkpt lat="42.84106" lon="-0.13861">
        <ele>1716.5712890625</ele>
        <time>2020-12-18T12:13:07Z</time>
      </trkpt>
      <trkpt lat="42.84109" lon="-0.13865">
        <ele>1714.16796875</ele>
        <time>2020-12-18T12:13:23Z</time>
      </trkpt>
      <trkpt lat="42.84107" lon="-0.13876">
        <ele>1711.2841796875</ele>
        <time>2020-12-18T12:13:46Z</time>
      </trkpt>
      <trkpt lat="42.84109" lon="-0.13879">
        <ele>1711.2841796875</ele>
        <time>2020-12-18T12:14:17Z</time>
      </trkpt>
      <trkpt lat="42.84117" lon="-0.13885">
        <ele>1707.9194335938</ele>
        <time>2020-12-18T12:14:38Z</time>
      </trkpt>
      <trkpt lat="42.84121" lon="-0.13887">
        <ele>1706.4772949219</ele>
        <time>2020-12-18T12:14:51Z</time>
      </trkpt>
      <trkpt lat="42.84122" lon="-0.13886">
        <ele>1705.5161132812</ele>
        <time>2020-12-18T12:14:53Z</time>
      </trkpt>
      <trkpt lat="42.84121" lon="-0.1389">
        <ele>1705.5161132812</ele>
        <time>2020-12-18T12:15:12Z</time>
      </trkpt>
      <trkpt lat="42.84115" lon="-0.13897">
        <ele>1706.4772949219</ele>
        <time>2020-12-18T12:15:28Z</time>
      </trkpt>
      <trkpt lat="42.84125" lon="-0.13899">
        <ele>1703.1127929688</ele>
        <time>2020-12-18T12:15:41Z</time>
      </trkpt>
      <trkpt lat="42.84135" lon="-0.13898">
        <ele>1702.6320800781</ele>
        <time>2020-12-18T12:15:50Z</time>
      </trkpt>
      <trkpt lat="42.8415" lon="-0.13892">
        <ele>1701.1901855469</ele>
        <time>2020-12-18T12:16:06Z</time>
      </trkpt>
      <trkpt lat="42.84154" lon="-0.13896">
        <ele>1701.1901855469</ele>
        <time>2020-12-18T12:16:20Z</time>
      </trkpt>
      <trkpt lat="42.84166" lon="-0.13902">
        <ele>1700.7094726562</ele>
        <time>2020-12-18T12:16:40Z</time>
      </trkpt>
      <trkpt lat="42.84177" lon="-0.13909">
        <ele>1700.7094726562</ele>
        <time>2020-12-18T12:16:53Z</time>
      </trkpt>
      <trkpt lat="42.8419" lon="-0.13912">
        <ele>1700.2290039062</ele>
        <time>2020-12-18T12:17:08Z</time>
      </trkpt>
      <trkpt lat="42.84202" lon="-0.13917">
        <ele>1699.267578125</ele>
        <time>2020-12-18T12:17:24Z</time>
      </trkpt>
      <trkpt lat="42.84214" lon="-0.13911">
        <ele>1699.267578125</ele>
        <time>2020-12-18T12:17:38Z</time>
      </trkpt>
      <trkpt lat="42.84226" lon="-0.13912">
        <ele>1698.7868652344</ele>
        <time>2020-12-18T12:17:55Z</time>
      </trkpt>
      <trkpt lat="42.84239" lon="-0.13915">
        <ele>1697.3449707031</ele>
        <time>2020-12-18T12:18:11Z</time>
      </trkpt>
      <trkpt lat="42.84249" lon="-0.13912">
        <ele>1698.7868652344</ele>
        <time>2020-12-18T12:18:25Z</time>
      </trkpt>
      <trkpt lat="42.8425" lon="-0.139">
        <ele>1698.3061523438</ele>
        <time>2020-12-18T12:18:38Z</time>
      </trkpt>
      <trkpt lat="42.8425" lon="-0.13888">
        <ele>1697.3449707031</ele>
        <time>2020-12-18T12:18:51Z</time>
      </trkpt>
      <trkpt lat="42.84258" lon="-0.13881">
        <ele>1696.3837890625</ele>
        <time>2020-12-18T12:19:04Z</time>
      </trkpt>
      <trkpt lat="42.84268" lon="-0.13876">
        <ele>1695.4223632812</ele>
        <time>2020-12-18T12:19:15Z</time>
      </trkpt>
      <trkpt lat="42.84275" lon="-0.13877">
        <ele>1694.9416503906</ele>
        <time>2020-12-18T12:19:28Z</time>
      </trkpt>
      <trkpt lat="42.84283" lon="-0.1388">
        <ele>1694.4609375</ele>
        <time>2020-12-18T12:19:38Z</time>
      </trkpt>
      <trkpt lat="42.84289" lon="-0.1388">
        <ele>1692.0578613281</ele>
        <time>2020-12-18T12:19:47Z</time>
      </trkpt>
      <trkpt lat="42.84301" lon="-0.13883">
        <ele>1691.5769042969</ele>
        <time>2020-12-18T12:20:00Z</time>
      </trkpt>
      <trkpt lat="42.84307" lon="-0.13884">
        <ele>1690.1350097656</ele>
        <time>2020-12-18T12:20:19Z</time>
      </trkpt>
      <trkpt lat="42.84318" lon="-0.13882">
        <ele>1691.0961914062</ele>
        <time>2020-12-18T12:20:32Z</time>
      </trkpt>
      <trkpt lat="42.84328" lon="-0.13885">
        <ele>1691.0961914062</ele>
        <time>2020-12-18T12:20:47Z</time>
      </trkpt>
      <trkpt lat="42.84337" lon="-0.13886">
        <ele>1689.654296875</ele>
        <time>2020-12-18T12:21:03Z</time>
      </trkpt>
      <trkpt lat="42.84345" lon="-0.13887">
        <ele>1689.654296875</ele>
        <time>2020-12-18T12:21:13Z</time>
      </trkpt>
      <trkpt lat="42.84353" lon="-0.13885">
        <ele>1690.1350097656</ele>
        <time>2020-12-18T12:21:23Z</time>
      </trkpt>
      <trkpt lat="42.84363" lon="-0.13882">
        <ele>1690.6154785156</ele>
        <time>2020-12-18T12:21:36Z</time>
      </trkpt>
      <trkpt lat="42.84373" lon="-0.1388">
        <ele>1687.7316894531</ele>
        <time>2020-12-18T12:21:47Z</time>
      </trkpt>
      <trkpt lat="42.84387" lon="-0.13879">
        <ele>1684.8479003906</ele>
        <time>2020-12-18T12:22:03Z</time>
      </trkpt>
      <trkpt lat="42.84395" lon="-0.13881">
        <ele>1683.4057617188</ele>
        <time>2020-12-18T12:22:12Z</time>
      </trkpt>
      <trkpt lat="42.84402" lon="-0.13878">
        <ele>1681.9638671875</ele>
        <time>2020-12-18T12:22:22Z</time>
      </trkpt>
      <trkpt lat="42.84414" lon="-0.13874">
        <ele>1681.4831542969</ele>
        <time>2020-12-18T12:22:36Z</time>
      </trkpt>
      <trkpt lat="42.84428" lon="-0.13875">
        <ele>1681.0026855469</ele>
        <time>2020-12-18T12:22:51Z</time>
      </trkpt>
      <trkpt lat="42.84436" lon="-0.13879">
        <ele>1679.560546875</ele>
        <time>2020-12-18T12:23:04Z</time>
      </trkpt>
      <trkpt lat="42.84443" lon="-0.13884">
        <ele>1677.1574707031</ele>
        <time>2020-12-18T12:23:15Z</time>
      </trkpt>
      <trkpt lat="42.84452" lon="-0.13883">
        <ele>1676.6767578125</ele>
        <time>2020-12-18T12:23:32Z</time>
      </trkpt>
      <trkpt lat="42.84456" lon="-0.13886">
        <ele>1675.234375</ele>
        <time>2020-12-18T12:23:40Z</time>
      </trkpt>
      <trkpt lat="42.84463" lon="-0.13892">
        <ele>1671.8698730469</ele>
        <time>2020-12-18T12:23:50Z</time>
      </trkpt>
      <trkpt lat="42.84464" lon="-0.13892">
        <ele>1671.3891601562</ele>
        <time>2020-12-18T12:23:51Z</time>
      </trkpt>
      <trkpt lat="42.84468" lon="-0.13893">
        <ele>1671.3891601562</ele>
        <time>2020-12-18T12:23:56Z</time>
      </trkpt>
      <trkpt lat="42.84479" lon="-0.13894">
        <ele>1669.466796875</ele>
        <time>2020-12-18T12:24:08Z</time>
      </trkpt>
      <trkpt lat="42.84489" lon="-0.13892">
        <ele>1667.5439453125</ele>
        <time>2020-12-18T12:24:20Z</time>
      </trkpt>
      <trkpt lat="42.84501" lon="-0.13898">
        <ele>1667.0634765625</ele>
        <time>2020-12-18T12:24:32Z</time>
      </trkpt>
      <trkpt lat="42.84513" lon="-0.13896">
        <ele>1665.1408691406</ele>
        <time>2020-12-18T12:24:48Z</time>
      </trkpt>
      <trkpt lat="42.8453" lon="-0.13892">
        <ele>1664.66015625</ele>
        <time>2020-12-18T12:25:05Z</time>
      </trkpt>
      <trkpt lat="42.84532" lon="-0.13888">
        <ele>1665.1408691406</ele>
        <time>2020-12-18T12:25:21Z</time>
      </trkpt>
      <trkpt lat="42.84533" lon="-0.13886">
        <ele>1665.1408691406</ele>
        <time>2020-12-18T12:25:43Z</time>
      </trkpt>
      <trkpt lat="42.84549" lon="-0.13883">
        <ele>1665.1408691406</ele>
        <time>2020-12-18T12:26:00Z</time>
      </trkpt>
      <trkpt lat="42.8455" lon="-0.13883">
        <ele>1664.66015625</ele>
        <time>2020-12-18T12:26:01Z</time>
      </trkpt>
      <trkpt lat="42.84563" lon="-0.13875">
        <ele>1665.1408691406</ele>
        <time>2020-12-18T12:26:16Z</time>
      </trkpt>
      <trkpt lat="42.84577" lon="-0.13871">
        <ele>1664.66015625</ele>
        <time>2020-12-18T12:26:30Z</time>
      </trkpt>
      <trkpt lat="42.8458" lon="-0.13866">
        <ele>1663.6987304688</ele>
        <time>2020-12-18T12:26:38Z</time>
      </trkpt>
      <trkpt lat="42.84586" lon="-0.13863">
        <ele>1661.2956542969</ele>
        <time>2020-12-18T12:26:54Z</time>
      </trkpt>
      <trkpt lat="42.84591" lon="-0.13864">
        <ele>1658.8920898438</ele>
        <time>2020-12-18T12:27:12Z</time>
      </trkpt>
      <trkpt lat="42.84597" lon="-0.13863">
        <ele>1657.9309082031</ele>
        <time>2020-12-18T12:27:25Z</time>
      </trkpt>
      <trkpt lat="42.84595" lon="-0.1387">
        <ele>1655.5275878906</ele>
        <time>2020-12-18T12:27:37Z</time>
      </trkpt>
      <trkpt lat="42.84599" lon="-0.13867">
        <ele>1653.6049804688</ele>
        <time>2020-12-18T12:27:54Z</time>
      </trkpt>
      <trkpt lat="42.84601" lon="-0.13865">
        <ele>1654.0856933594</ele>
        <time>2020-12-18T12:28:02Z</time>
      </trkpt>
      <trkpt lat="42.84615" lon="-0.13862">
        <ele>1653.1242675781</ele>
        <time>2020-12-18T12:28:17Z</time>
      </trkpt>
      <trkpt lat="42.84619" lon="-0.13864">
        <ele>1653.6049804688</ele>
        <time>2020-12-18T12:28:23Z</time>
      </trkpt>
      <trkpt lat="42.84628" lon="-0.1387">
        <ele>1654.0856933594</ele>
        <time>2020-12-18T12:28:35Z</time>
      </trkpt>
      <trkpt lat="42.84641" lon="-0.13873">
        <ele>1652.6435546875</ele>
        <time>2020-12-18T12:28:51Z</time>
      </trkpt>
      <trkpt lat="42.84649" lon="-0.13872">
        <ele>1649.759765625</ele>
        <time>2020-12-18T12:29:07Z</time>
      </trkpt>
      <trkpt lat="42.84654" lon="-0.13865">
        <ele>1646.8757324219</ele>
        <time>2020-12-18T12:29:26Z</time>
      </trkpt>
      <trkpt lat="42.84658" lon="-0.13864">
        <ele>1646.3952636719</ele>
        <time>2020-12-18T12:29:58Z</time>
      </trkpt>
      <trkpt lat="42.84657" lon="-0.13863">
        <ele>1644.4724121094</ele>
        <time>2020-12-18T12:30:39Z</time>
      </trkpt>
      <trkpt lat="42.84662" lon="-0.13858">
        <ele>1642.5498046875</ele>
        <time>2020-12-18T12:31:06Z</time>
      </trkpt>
      <trkpt lat="42.84666" lon="-0.13855">
        <ele>1641.5883789062</ele>
        <time>2020-12-18T12:31:20Z</time>
      </trkpt>
      <trkpt lat="42.84671" lon="-0.13852">
        <ele>1641.1076660156</ele>
        <time>2020-12-18T12:31:36Z</time>
      </trkpt>
      <trkpt lat="42.84675" lon="-0.13845">
        <ele>1640.626953125</ele>
        <time>2020-12-18T12:31:50Z</time>
      </trkpt>
      <trkpt lat="42.84675" lon="-0.13849">
        <ele>1637.7431640625</ele>
        <time>2020-12-18T12:32:04Z</time>
      </trkpt>
      <trkpt lat="42.84674" lon="-0.1385">
        <ele>1636.7817382812</ele>
        <time>2020-12-18T12:32:06Z</time>
      </trkpt>
      <trkpt lat="42.84673" lon="-0.1385">
        <ele>1635.8205566406</ele>
        <time>2020-12-18T12:32:09Z</time>
      </trkpt>
      <trkpt lat="42.84681" lon="-0.13851">
        <ele>1635.33984375</ele>
        <time>2020-12-18T12:32:25Z</time>
      </trkpt>
      <trkpt lat="42.84687" lon="-0.13851">
        <ele>1631.4946289062</ele>
        <time>2020-12-18T12:32:35Z</time>
      </trkpt>
      <trkpt lat="42.84691" lon="-0.13858">
        <ele>1629.5720214844</ele>
        <time>2020-12-18T12:33:07Z</time>
      </trkpt>
      <trkpt lat="42.84703" lon="-0.13857">
        <ele>1627.1687011719</ele>
        <time>2020-12-18T12:33:22Z</time>
      </trkpt>
      <trkpt lat="42.84716" lon="-0.13855">
        <ele>1626.6879882812</ele>
        <time>2020-12-18T12:33:35Z</time>
      </trkpt>
      <trkpt lat="42.84725" lon="-0.1385">
        <ele>1626.2072753906</ele>
        <time>2020-12-18T12:33:44Z</time>
      </trkpt>
      <trkpt lat="42.84739" lon="-0.13844">
        <ele>1625.2458496094</ele>
        <time>2020-12-18T12:34:01Z</time>
      </trkpt>
      <trkpt lat="42.84754" lon="-0.13838">
        <ele>1623.3234863281</ele>
        <time>2020-12-18T12:34:19Z</time>
      </trkpt>
      <trkpt lat="42.84766" lon="-0.1384">
        <ele>1621.8813476562</ele>
        <time>2020-12-18T12:34:36Z</time>
      </trkpt>
      <trkpt lat="42.84778" lon="-0.13844">
        <ele>1619.9587402344</ele>
        <time>2020-12-18T12:34:51Z</time>
      </trkpt>
      <trkpt lat="42.8479" lon="-0.13845">
        <ele>1620.439453125</ele>
        <time>2020-12-18T12:35:04Z</time>
      </trkpt>
      <trkpt lat="42.84801" lon="-0.13849">
        <ele>1616.5942382812</ele>
        <time>2020-12-18T12:35:19Z</time>
      </trkpt>
      <trkpt lat="42.84811" lon="-0.13848">
        <ele>1614.6716308594</ele>
        <time>2020-12-18T12:35:34Z</time>
      </trkpt>
      <trkpt lat="42.84818" lon="-0.1385">
        <ele>1611.3068847656</ele>
        <time>2020-12-18T12:35:45Z</time>
      </trkpt>
      <trkpt lat="42.84827" lon="-0.13852">
        <ele>1609.3842773438</ele>
        <time>2020-12-18T12:35:58Z</time>
      </trkpt>
      <trkpt lat="42.84834" lon="-0.13858">
        <ele>1606.5002441406</ele>
        <time>2020-12-18T12:36:12Z</time>
      </trkpt>
      <trkpt lat="42.84842" lon="-0.13857">
        <ele>1604.5776367188</ele>
        <time>2020-12-18T12:36:25Z</time>
      </trkpt>
      <trkpt lat="42.84852" lon="-0.13859">
        <ele>1603.6164550781</ele>
        <time>2020-12-18T12:36:41Z</time>
      </trkpt>
      <trkpt lat="42.84863" lon="-0.13864">
        <ele>1600.732421875</ele>
        <time>2020-12-18T12:36:57Z</time>
      </trkpt>
      <trkpt lat="42.84868" lon="-0.13867">
        <ele>1599.2905273438</ele>
        <time>2020-12-18T12:37:09Z</time>
      </trkpt>
      <trkpt lat="42.84875" lon="-0.13871">
        <ele>1596.4067382812</ele>
        <time>2020-12-18T12:37:24Z</time>
      </trkpt>
      <trkpt lat="42.8488" lon="-0.13874">
        <ele>1594.9643554688</ele>
        <time>2020-12-18T12:37:39Z</time>
      </trkpt>
      <trkpt lat="42.84886" lon="-0.1387">
        <ele>1592.0805664062</ele>
        <time>2020-12-18T12:37:55Z</time>
      </trkpt>
      <trkpt lat="42.84894" lon="-0.13873">
        <ele>1590.1579589844</ele>
        <time>2020-12-18T12:38:08Z</time>
      </trkpt>
      <trkpt lat="42.849" lon="-0.13881">
        <ele>1588.7160644531</ele>
        <time>2020-12-18T12:38:22Z</time>
      </trkpt>
      <trkpt lat="42.84902" lon="-0.13878">
        <ele>1587.2739257812</ele>
        <time>2020-12-18T12:38:37Z</time>
      </trkpt>
      <trkpt lat="42.84902" lon="-0.1387">
        <ele>1584.8708496094</ele>
        <time>2020-12-18T12:38:51Z</time>
      </trkpt>
      <trkpt lat="42.84907" lon="-0.13872">
        <ele>1583.9094238281</ele>
        <time>2020-12-18T12:39:05Z</time>
      </trkpt>
      <trkpt lat="42.84915" lon="-0.13868">
        <ele>1582.9479980469</ele>
        <time>2020-12-18T12:39:18Z</time>
      </trkpt>
      <trkpt lat="42.84922" lon="-0.13866">
        <ele>1580.544921875</ele>
        <time>2020-12-18T12:39:33Z</time>
      </trkpt>
      <trkpt lat="42.84924" lon="-0.13862">
        <ele>1580.0642089844</ele>
        <time>2020-12-18T12:39:53Z</time>
      </trkpt>
      <trkpt lat="42.84927" lon="-0.13862">
        <ele>1578.1413574219</ele>
        <time>2020-12-18T12:40:14Z</time>
      </trkpt>
      <trkpt lat="42.84931" lon="-0.13862">
        <ele>1576.6994628906</ele>
        <time>2020-12-18T12:40:34Z</time>
      </trkpt>
      <trkpt lat="42.84937" lon="-0.13854">
        <ele>1574.7768554688</ele>
        <time>2020-12-18T12:40:48Z</time>
      </trkpt>
      <trkpt lat="42.84947" lon="-0.1385">
        <ele>1573.3349609375</ele>
        <time>2020-12-18T12:41:04Z</time>
      </trkpt>
      <trkpt lat="42.84952" lon="-0.13848">
        <ele>1572.3735351562</ele>
        <time>2020-12-18T12:41:18Z</time>
      </trkpt>
      <trkpt lat="42.8496" lon="-0.13847">
        <ele>1569.4897460938</ele>
        <time>2020-12-18T12:41:51Z</time>
      </trkpt>
      <trkpt lat="42.84963" lon="-0.13846">
        <ele>1570.931640625</ele>
        <time>2020-12-18T12:42:07Z</time>
      </trkpt>
      <trkpt lat="42.84967" lon="-0.13847">
        <ele>1567.5668945312</ele>
        <time>2020-12-18T12:42:21Z</time>
      </trkpt>
      <trkpt lat="42.8497" lon="-0.13843">
        <ele>1567.5668945312</ele>
        <time>2020-12-18T12:42:35Z</time>
      </trkpt>
      <trkpt lat="42.84973" lon="-0.13835">
        <ele>1565.64453125</ele>
        <time>2020-12-18T12:42:51Z</time>
      </trkpt>
      <trkpt lat="42.84977" lon="-0.1383">
        <ele>1562.7602539062</ele>
        <time>2020-12-18T12:43:01Z</time>
      </trkpt>
      <trkpt lat="42.84988" lon="-0.13832">
        <ele>1559.8762207031</ele>
        <time>2020-12-18T12:43:16Z</time>
      </trkpt>
      <trkpt lat="42.84991" lon="-0.13837">
        <ele>1557.9538574219</ele>
        <time>2020-12-18T12:43:23Z</time>
      </trkpt>
      <trkpt lat="42.84995" lon="-0.13844">
        <ele>1555.5505371094</ele>
        <time>2020-12-18T12:43:32Z</time>
      </trkpt>
      <trkpt lat="42.84997" lon="-0.13859">
        <ele>1553.6279296875</ele>
        <time>2020-12-18T12:43:46Z</time>
      </trkpt>
      <trkpt lat="42.84994" lon="-0.13873">
        <ele>1552.6665039062</ele>
        <time>2020-12-18T12:44:00Z</time>
      </trkpt>
      <trkpt lat="42.84994" lon="-0.13878">
        <ele>1550.7438964844</ele>
        <time>2020-12-18T12:44:13Z</time>
      </trkpt>
      <trkpt lat="42.84999" lon="-0.13876">
        <ele>1547.8598632812</ele>
        <time>2020-12-18T12:44:21Z</time>
      </trkpt>
      <trkpt lat="42.85002" lon="-0.1387">
        <ele>1546.8984375</ele>
        <time>2020-12-18T12:44:27Z</time>
      </trkpt>
      <trkpt lat="42.85012" lon="-0.13852">
        <ele>1544.4951171875</ele>
        <time>2020-12-18T12:44:43Z</time>
      </trkpt>
      <trkpt lat="42.85016" lon="-0.13829">
        <ele>1543.0532226562</ele>
        <time>2020-12-18T12:44:59Z</time>
      </trkpt>
      <trkpt lat="42.85018" lon="-0.13829">
        <ele>1540.6499023438</ele>
        <time>2020-12-18T12:45:07Z</time>
      </trkpt>
      <trkpt lat="42.85019" lon="-0.13831">
        <ele>1540.1694335938</ele>
        <time>2020-12-18T12:45:08Z</time>
      </trkpt>
      <trkpt lat="42.85023" lon="-0.13848">
        <ele>1539.2080078125</ele>
        <time>2020-12-18T12:45:22Z</time>
      </trkpt>
      <trkpt lat="42.85024" lon="-0.13853">
        <ele>1538.7275390625</ele>
        <time>2020-12-18T12:45:26Z</time>
      </trkpt>
      <trkpt lat="42.85023" lon="-0.13861">
        <ele>1537.2854003906</ele>
        <time>2020-12-18T12:45:37Z</time>
      </trkpt>
      <trkpt lat="42.85022" lon="-0.13871">
        <ele>1536.8046875</ele>
        <time>2020-12-18T12:45:49Z</time>
      </trkpt>
      <trkpt lat="42.85021" lon="-0.13882">
        <ele>1534.4016113281</ele>
        <time>2020-12-18T12:46:03Z</time>
      </trkpt>
      <trkpt lat="42.85021" lon="-0.13884">
        <ele>1532.9594726562</ele>
        <time>2020-12-18T12:46:05Z</time>
      </trkpt>
      <trkpt lat="42.8502" lon="-0.13899">
        <ele>1532.4790039062</ele>
        <time>2020-12-18T12:46:19Z</time>
      </trkpt>
      <trkpt lat="42.85018" lon="-0.13914">
        <ele>1532.9594726562</ele>
        <time>2020-12-18T12:46:32Z</time>
      </trkpt>
      <trkpt lat="42.85024" lon="-0.13916">
        <ele>1529.5947265625</ele>
        <time>2020-12-18T12:46:46Z</time>
      </trkpt>
      <trkpt lat="42.85029" lon="-0.13904">
        <ele>1526.2302246094</ele>
        <time>2020-12-18T12:47:02Z</time>
      </trkpt>
      <trkpt lat="42.85033" lon="-0.13895">
        <ele>1526.7109375</ele>
        <time>2020-12-18T12:47:15Z</time>
      </trkpt>
      <trkpt lat="42.85034" lon="-0.13893">
        <ele>1525.7495117188</ele>
        <time>2020-12-18T12:47:17Z</time>
      </trkpt>
      <trkpt lat="42.8504" lon="-0.13886">
        <ele>1523.3464355469</ele>
        <time>2020-12-18T12:47:31Z</time>
      </trkpt>
      <trkpt lat="42.85044" lon="-0.13886">
        <ele>1520.9431152344</ele>
        <time>2020-12-18T12:47:46Z</time>
      </trkpt>
      <trkpt lat="42.85044" lon="-0.13894">
        <ele>1518.0590820312</ele>
        <time>2020-12-18T12:47:56Z</time>
      </trkpt>
      <trkpt lat="42.85044" lon="-0.13895">
        <ele>1517.5783691406</ele>
        <time>2020-12-18T12:47:57Z</time>
      </trkpt>
      <trkpt lat="42.85044" lon="-0.13906">
        <ele>1515.6557617188</ele>
        <time>2020-12-18T12:48:09Z</time>
      </trkpt>
      <trkpt lat="42.85046" lon="-0.13902">
        <ele>1514.6943359375</ele>
        <time>2020-12-18T12:48:22Z</time>
      </trkpt>
      <trkpt lat="42.85048" lon="-0.13896">
        <ele>1514.6943359375</ele>
        <time>2020-12-18T12:48:43Z</time>
      </trkpt>
      <trkpt lat="42.85052" lon="-0.13889">
        <ele>1513.2524414062</ele>
        <time>2020-12-18T12:48:57Z</time>
      </trkpt>
      <trkpt lat="42.85058" lon="-0.13888">
        <ele>1510.8491210938</ele>
        <time>2020-12-18T12:49:10Z</time>
      </trkpt>
      <trkpt lat="42.85062" lon="-0.13885">
        <ele>1510.8491210938</ele>
        <time>2020-12-18T12:49:33Z</time>
      </trkpt>
      <trkpt lat="42.85067" lon="-0.13886">
        <ele>1508.4458007812</ele>
        <time>2020-12-18T12:49:48Z</time>
      </trkpt>
      <trkpt lat="42.85074" lon="-0.13888">
        <ele>1506.5231933594</ele>
        <time>2020-12-18T12:49:57Z</time>
      </trkpt>
      <trkpt lat="42.85077" lon="-0.13886">
        <ele>1506.5231933594</ele>
        <time>2020-12-18T12:50:01Z</time>
      </trkpt>
      <trkpt lat="42.85083" lon="-0.13879">
        <ele>1506.0424804688</ele>
        <time>2020-12-18T12:50:16Z</time>
      </trkpt>
      <trkpt lat="42.85088" lon="-0.13873">
        <ele>1503.6394042969</ele>
        <time>2020-12-18T12:50:30Z</time>
      </trkpt>
      <trkpt lat="42.85093" lon="-0.13882">
        <ele>1502.197265625</ele>
        <time>2020-12-18T12:50:42Z</time>
      </trkpt>
      <trkpt lat="42.85094" lon="-0.13894">
        <ele>1499.3132324219</ele>
        <time>2020-12-18T12:50:53Z</time>
      </trkpt>
      <trkpt lat="42.85102" lon="-0.1389">
        <ele>1498.3518066406</ele>
        <time>2020-12-18T12:51:08Z</time>
      </trkpt>
      <trkpt lat="42.85104" lon="-0.13882">
        <ele>1496.4294433594</ele>
        <time>2020-12-18T12:51:14Z</time>
      </trkpt>
      <trkpt lat="42.85113" lon="-0.1386">
        <ele>1495.4680175781</ele>
        <time>2020-12-18T12:51:33Z</time>
      </trkpt>
      <trkpt lat="42.85118" lon="-0.13853">
        <ele>1493.5454101562</ele>
        <time>2020-12-18T12:51:42Z</time>
      </trkpt>
      <trkpt lat="42.85129" lon="-0.13842">
        <ele>1491.6228027344</ele>
        <time>2020-12-18T12:52:00Z</time>
      </trkpt>
      <trkpt lat="42.85132" lon="-0.13828">
        <ele>1490.1809082031</ele>
        <time>2020-12-18T12:52:16Z</time>
      </trkpt>
      <trkpt lat="42.85134" lon="-0.13815">
        <ele>1489.2194824219</ele>
        <time>2020-12-18T12:52:26Z</time>
      </trkpt>
      <trkpt lat="42.85137" lon="-0.13798">
        <ele>1488.7390136719</ele>
        <time>2020-12-18T12:52:38Z</time>
      </trkpt>
      <trkpt lat="42.85145" lon="-0.13774">
        <ele>1486.8161621094</ele>
        <time>2020-12-18T12:52:57Z</time>
      </trkpt>
      <trkpt lat="42.85156" lon="-0.13756">
        <ele>1485.3742675781</ele>
        <time>2020-12-18T12:53:14Z</time>
      </trkpt>
      <trkpt lat="42.85157" lon="-0.13754">
        <ele>1485.3742675781</ele>
        <time>2020-12-18T12:53:16Z</time>
      </trkpt>
      <trkpt lat="42.85164" lon="-0.13728">
        <ele>1483.4514160156</ele>
        <time>2020-12-18T12:53:36Z</time>
      </trkpt>
      <trkpt lat="42.85168" lon="-0.13703">
        <ele>1480.5676269531</ele>
        <time>2020-12-18T12:53:54Z</time>
      </trkpt>
      <trkpt lat="42.85168" lon="-0.13697">
        <ele>1479.6062011719</ele>
        <time>2020-12-18T12:54:15Z</time>
      </trkpt>
      <trkpt lat="42.85169" lon="-0.1369">
        <ele>1480.0869140625</ele>
        <time>2020-12-18T12:54:39Z</time>
      </trkpt>
      <trkpt lat="42.85178" lon="-0.13673">
        <ele>1479.6062011719</ele>
        <time>2020-12-18T12:54:56Z</time>
      </trkpt>
      <trkpt lat="42.8518" lon="-0.13663">
        <ele>1478.6450195312</ele>
        <time>2020-12-18T12:55:06Z</time>
      </trkpt>
      <trkpt lat="42.8519" lon="-0.13635">
        <ele>1476.7224121094</ele>
        <time>2020-12-18T12:55:28Z</time>
      </trkpt>
      <trkpt lat="42.85191" lon="-0.13631">
        <ele>1477.203125</ele>
        <time>2020-12-18T12:55:31Z</time>
      </trkpt>
      <trkpt lat="42.85214" lon="-0.1362">
        <ele>1478.1643066406</ele>
        <time>2020-12-18T12:55:54Z</time>
      </trkpt>
      <trkpt lat="42.85235" lon="-0.13617">
        <ele>1475.2802734375</ele>
        <time>2020-12-18T12:56:14Z</time>
      </trkpt>
      <trkpt lat="42.85237" lon="-0.13614">
        <ele>1475.7609863281</ele>
        <time>2020-12-18T12:56:31Z</time>
      </trkpt>
    </trkseg>
  </trk>
</gpx>